<?xml version="1.0" encoding="UTF-8" standalone="no" ?>
<gpx xmlns="http://www.topografix.com/GPX/1/1" xmlns:xsi="http://www.w3.org/2001/XMLSchema-instance" xsi:schemaLocation="http://www.topografix.com/GPX/1/1 http://www.topografix.com/GPX/1/1/gpx.xsd" version="1.1" creator="VisuGPX - https://www.visugpx.com">
  <metadata>
    <name>2020-06-07 Balade Uchon</name>
  </metadata>
  <trk>
    <name><![CDATA[2020-06-07 Balade Uchon]]></name>
    <trkseg>
      <trkpt lat="46.80626" lon="4.2565">
        <ele>650.22502328</ele>
        <time>2020-06-07T12:26:40Z</time>
      </trkpt>
      <trkpt lat="46.8063" lon="4.2566">
        <ele>653.22518564</ele>
        <time>2020-06-07T12:26:50Z</time>
      </trkpt>
      <trkpt lat="46.80637" lon="4.25671">
        <ele>660.22548556</ele>
        <time>2020-06-07T12:26:59Z</time>
      </trkpt>
      <trkpt lat="46.80647" lon="4.2568">
        <ele>659.22587912</ele>
        <time>2020-06-07T12:27:09Z</time>
      </trkpt>
      <trkpt lat="46.8065" lon="4.25696">
        <ele>657.22599252</ele>
        <time>2020-06-07T12:27:18Z</time>
      </trkpt>
      <trkpt lat="46.80653" lon="4.25714">
        <ele>657.22610144</ele>
        <time>2020-06-07T12:27:27Z</time>
      </trkpt>
      <trkpt lat="46.80652" lon="4.25727">
        <ele>658.22609028</ele>
        <time>2020-06-07T12:27:37Z</time>
      </trkpt>
      <trkpt lat="46.80656" lon="4.25744">
        <ele>658.22622168</ele>
        <time>2020-06-07T12:27:47Z</time>
      </trkpt>
      <trkpt lat="46.8065" lon="4.25758">
        <ele>661.22600896</ele>
        <time>2020-06-07T12:27:56Z</time>
      </trkpt>
      <trkpt lat="46.80654" lon="4.25775">
        <ele>660.2261446</ele>
        <time>2020-06-07T12:28:05Z</time>
      </trkpt>
      <trkpt lat="46.80653" lon="4.2579">
        <ele>662.22609896</ele>
        <time>2020-06-07T12:28:14Z</time>
      </trkpt>
      <trkpt lat="46.80655" lon="4.25803">
        <ele>667.22620532</ele>
        <time>2020-06-07T12:28:24Z</time>
      </trkpt>
      <trkpt lat="46.80657" lon="4.2582">
        <ele>665.22627032</ele>
        <time>2020-06-07T12:28:33Z</time>
      </trkpt>
      <trkpt lat="46.80665" lon="4.25835">
        <ele>669.2265994</ele>
        <time>2020-06-07T12:28:42Z</time>
      </trkpt>
      <trkpt lat="46.80669" lon="4.25852">
        <ele>665.22674324</ele>
        <time>2020-06-07T12:28:52Z</time>
      </trkpt>
      <trkpt lat="46.80668" lon="4.25869">
        <ele>665.2267116</ele>
        <time>2020-06-07T12:29:01Z</time>
      </trkpt>
      <trkpt lat="46.80667" lon="4.25885">
        <ele>665.22667868</ele>
        <time>2020-06-07T12:29:11Z</time>
      </trkpt>
      <trkpt lat="46.80665" lon="4.25899">
        <ele>665.22659356</ele>
        <time>2020-06-07T12:29:20Z</time>
      </trkpt>
      <trkpt lat="46.80661" lon="4.25918">
        <ele>669.22644552</ele>
        <time>2020-06-07T12:29:29Z</time>
      </trkpt>
      <trkpt lat="46.80657" lon="4.2593">
        <ele>668.22629048</ele>
        <time>2020-06-07T12:29:38Z</time>
      </trkpt>
      <trkpt lat="46.80653" lon="4.25944">
        <ele>672.22609888</ele>
        <time>2020-06-07T12:29:47Z</time>
      </trkpt>
      <trkpt lat="46.80652" lon="4.2596">
        <ele>672.22605992</ele>
        <time>2020-06-07T12:29:56Z</time>
      </trkpt>
      <trkpt lat="46.80647" lon="4.25974">
        <ele>669.22588588</ele>
        <time>2020-06-07T12:30:06Z</time>
      </trkpt>
      <trkpt lat="46.80641" lon="4.25992">
        <ele>670.22565128</ele>
        <time>2020-06-07T12:30:16Z</time>
      </trkpt>
      <trkpt lat="46.80641" lon="4.2601">
        <ele>672.22562168</ele>
        <time>2020-06-07T12:30:26Z</time>
      </trkpt>
      <trkpt lat="46.80649" lon="4.2602">
        <ele>670.22594828</ele>
        <time>2020-06-07T12:30:35Z</time>
      </trkpt>
      <trkpt lat="46.80661" lon="4.26023">
        <ele>672.2264404</ele>
        <time>2020-06-07T12:30:45Z</time>
      </trkpt>
      <trkpt lat="46.80671" lon="4.26032">
        <ele>671.22682532</ele>
        <time>2020-06-07T12:30:55Z</time>
      </trkpt>
      <trkpt lat="46.8068" lon="4.26043">
        <ele>670.22719416</ele>
        <time>2020-06-07T12:31:04Z</time>
      </trkpt>
      <trkpt lat="46.80685" lon="4.26056">
        <ele>669.22740444</ele>
        <time>2020-06-07T12:31:13Z</time>
      </trkpt>
      <trkpt lat="46.80686" lon="4.26068">
        <ele>675.22744984</ele>
        <time>2020-06-07T12:31:23Z</time>
      </trkpt>
      <trkpt lat="46.80684" lon="4.26086">
        <ele>670.22733824</ele>
        <time>2020-06-07T12:31:33Z</time>
      </trkpt>
      <trkpt lat="46.80679" lon="4.26097">
        <ele>672.22716504</ele>
        <time>2020-06-07T12:31:43Z</time>
      </trkpt>
      <trkpt lat="46.80693" lon="4.26105">
        <ele>670.22771632</ele>
        <time>2020-06-07T12:31:53Z</time>
      </trkpt>
      <trkpt lat="46.80697" lon="4.26115">
        <ele>670.22788948</ele>
        <time>2020-06-07T12:32:36Z</time>
      </trkpt>
      <trkpt lat="46.80707" lon="4.26129">
        <ele>671.22827268</ele>
        <time>2020-06-07T12:32:45Z</time>
      </trkpt>
      <trkpt lat="46.80712" lon="4.26148">
        <ele>674.22848668</ele>
        <time>2020-06-07T12:32:55Z</time>
      </trkpt>
      <trkpt lat="46.80714" lon="4.26161">
        <ele>675.22853912</ele>
        <time>2020-06-07T12:33:08Z</time>
      </trkpt>
      <trkpt lat="46.80723" lon="4.26175">
        <ele>672.22890256</ele>
        <time>2020-06-07T12:33:18Z</time>
      </trkpt>
      <trkpt lat="46.80715" lon="4.26186">
        <ele>668.2286124</ele>
        <time>2020-06-07T12:33:27Z</time>
      </trkpt>
      <trkpt lat="46.80705" lon="4.262">
        <ele>666.22821764</ele>
        <time>2020-06-07T12:33:37Z</time>
      </trkpt>
      <trkpt lat="46.80696" lon="4.26213">
        <ele>668.22785492</ele>
        <time>2020-06-07T12:33:46Z</time>
      </trkpt>
      <trkpt lat="46.80688" lon="4.26222">
        <ele>668.2275034</ele>
        <time>2020-06-07T12:33:56Z</time>
      </trkpt>
      <trkpt lat="46.8068" lon="4.26231">
        <ele>671.22721188</ele>
        <time>2020-06-07T12:34:06Z</time>
      </trkpt>
      <trkpt lat="46.80671" lon="4.26237">
        <ele>668.22684548</ele>
        <time>2020-06-07T12:34:15Z</time>
      </trkpt>
      <trkpt lat="46.80663" lon="4.26243">
        <ele>668.22651016</ele>
        <time>2020-06-07T12:34:25Z</time>
      </trkpt>
      <trkpt lat="46.80654" lon="4.26247">
        <ele>665.22615924</ele>
        <time>2020-06-07T12:34:35Z</time>
      </trkpt>
      <trkpt lat="46.80648" lon="4.26261">
        <ele>666.22593632</ele>
        <time>2020-06-07T12:34:44Z</time>
      </trkpt>
      <trkpt lat="46.80639" lon="4.26271">
        <ele>665.22554536</ele>
        <time>2020-06-07T12:34:53Z</time>
      </trkpt>
      <trkpt lat="46.80632" lon="4.26284">
        <ele>661.22528096</ele>
        <time>2020-06-07T12:35:03Z</time>
      </trkpt>
      <trkpt lat="46.80622" lon="4.26286">
        <ele>660.22487252</ele>
        <time>2020-06-07T12:35:12Z</time>
      </trkpt>
      <trkpt lat="46.80612" lon="4.26296">
        <ele>661.22446864</ele>
        <time>2020-06-07T12:35:21Z</time>
      </trkpt>
      <trkpt lat="46.80601" lon="4.2631">
        <ele>661.22403736</ele>
        <time>2020-06-07T12:35:31Z</time>
      </trkpt>
      <trkpt lat="46.8059" lon="4.26309">
        <ele>657.22359764</ele>
        <time>2020-06-07T12:35:41Z</time>
      </trkpt>
      <trkpt lat="46.80586" lon="4.26326">
        <ele>658.22342692</ele>
        <time>2020-06-07T12:35:50Z</time>
      </trkpt>
      <trkpt lat="46.80578" lon="4.26339">
        <ele>656.22312896</ele>
        <time>2020-06-07T12:36:00Z</time>
      </trkpt>
      <trkpt lat="46.80576" lon="4.26357">
        <ele>653.22305752</ele>
        <time>2020-06-07T12:36:09Z</time>
      </trkpt>
      <trkpt lat="46.80571" lon="4.26369">
        <ele>650.22283312</ele>
        <time>2020-06-07T12:36:19Z</time>
      </trkpt>
      <trkpt lat="46.8057" lon="4.26382">
        <ele>648.2227892</ele>
        <time>2020-06-07T12:36:30Z</time>
      </trkpt>
      <trkpt lat="46.80571" lon="4.26405">
        <ele>646.22282712</ele>
        <time>2020-06-07T12:36:39Z</time>
      </trkpt>
      <trkpt lat="46.80558" lon="4.26421">
        <ele>651.22232892</ele>
        <time>2020-06-07T12:36:48Z</time>
      </trkpt>
      <trkpt lat="46.80551" lon="4.26429">
        <ele>656.22205404</ele>
        <time>2020-06-07T12:36:57Z</time>
      </trkpt>
      <trkpt lat="46.80552" lon="4.26444">
        <ele>658.22207552</ele>
        <time>2020-06-07T12:37:06Z</time>
      </trkpt>
      <trkpt lat="46.80555" lon="4.26458">
        <ele>657.22220324</ele>
        <time>2020-06-07T12:37:15Z</time>
      </trkpt>
      <trkpt lat="46.80557" lon="4.26471">
        <ele>657.22227708</ele>
        <time>2020-06-07T12:37:25Z</time>
      </trkpt>
      <trkpt lat="46.80558" lon="4.26486">
        <ele>653.22231284</ele>
        <time>2020-06-07T12:37:34Z</time>
      </trkpt>
      <trkpt lat="46.80559" lon="4.265">
        <ele>660.22235964</ele>
        <time>2020-06-07T12:37:43Z</time>
      </trkpt>
      <trkpt lat="46.80555" lon="4.26519">
        <ele>656.22221632</ele>
        <time>2020-06-07T12:37:53Z</time>
      </trkpt>
      <trkpt lat="46.80557" lon="4.26535">
        <ele>651.22228052</ele>
        <time>2020-06-07T12:38:03Z</time>
      </trkpt>
      <trkpt lat="46.80567" lon="4.26551">
        <ele>652.22268812</ele>
        <time>2020-06-07T12:38:13Z</time>
      </trkpt>
      <trkpt lat="46.80571" lon="4.26567">
        <ele>652.2228454</ele>
        <time>2020-06-07T12:38:23Z</time>
      </trkpt>
      <trkpt lat="46.80571" lon="4.26583">
        <ele>652.22284324</ele>
        <time>2020-06-07T12:38:32Z</time>
      </trkpt>
      <trkpt lat="46.80568" lon="4.26604">
        <ele>654.22271344</ele>
        <time>2020-06-07T12:38:42Z</time>
      </trkpt>
      <trkpt lat="46.80565" lon="4.26622">
        <ele>654.22260348</ele>
        <time>2020-06-07T12:38:51Z</time>
      </trkpt>
      <trkpt lat="46.80564" lon="4.26637">
        <ele>654.22255352</ele>
        <time>2020-06-07T12:39:00Z</time>
      </trkpt>
      <trkpt lat="46.80564" lon="4.26652">
        <ele>654.22256388</ele>
        <time>2020-06-07T12:39:10Z</time>
      </trkpt>
      <trkpt lat="46.80564" lon="4.26666">
        <ele>650.2225536</ele>
        <time>2020-06-07T12:39:19Z</time>
      </trkpt>
      <trkpt lat="46.80558" lon="4.26683">
        <ele>652.22232904</ele>
        <time>2020-06-07T12:39:29Z</time>
      </trkpt>
      <trkpt lat="46.80553" lon="4.26702">
        <ele>645.22213304</ele>
        <time>2020-06-07T12:39:39Z</time>
      </trkpt>
      <trkpt lat="46.8055" lon="4.26717">
        <ele>644.2220044</ele>
        <time>2020-06-07T12:39:48Z</time>
      </trkpt>
      <trkpt lat="46.80553" lon="4.26728">
        <ele>652.22212828</ele>
        <time>2020-06-07T12:40:17Z</time>
      </trkpt>
      <trkpt lat="46.80553" lon="4.26745">
        <ele>651.22210148</ele>
        <time>2020-06-07T12:40:27Z</time>
      </trkpt>
      <trkpt lat="46.8055" lon="4.26762">
        <ele>651.22198328</ele>
        <time>2020-06-07T12:40:36Z</time>
      </trkpt>
      <trkpt lat="46.80555" lon="4.26777">
        <ele>652.2222086</ele>
        <time>2020-06-07T12:40:45Z</time>
      </trkpt>
      <trkpt lat="46.8055" lon="4.26791">
        <ele>649.2220006</ele>
        <time>2020-06-07T12:40:54Z</time>
      </trkpt>
      <trkpt lat="46.80556" lon="4.26809">
        <ele>649.22222064</ele>
        <time>2020-06-07T12:41:04Z</time>
      </trkpt>
      <trkpt lat="46.80563" lon="4.26823">
        <ele>646.22251328</ele>
        <time>2020-06-07T12:41:13Z</time>
      </trkpt>
      <trkpt lat="46.80564" lon="4.26839">
        <ele>639.22253916</ele>
        <time>2020-06-07T12:41:23Z</time>
      </trkpt>
      <trkpt lat="46.80568" lon="4.26857">
        <ele>645.22271092</ele>
        <time>2020-06-07T12:41:33Z</time>
      </trkpt>
      <trkpt lat="46.80573" lon="4.26867">
        <ele>640.22291248</ele>
        <time>2020-06-07T12:41:42Z</time>
      </trkpt>
      <trkpt lat="46.80575" lon="4.26882">
        <ele>643.22299608</ele>
        <time>2020-06-07T12:41:51Z</time>
      </trkpt>
      <trkpt lat="46.80576" lon="4.26894">
        <ele>642.22302412</ele>
        <time>2020-06-07T12:42:01Z</time>
      </trkpt>
      <trkpt lat="46.80571" lon="4.26905">
        <ele>648.22284268</ele>
        <time>2020-06-07T12:42:11Z</time>
      </trkpt>
      <trkpt lat="46.80556" lon="4.26916">
        <ele>651.22222808</ele>
        <time>2020-06-07T12:42:21Z</time>
      </trkpt>
      <trkpt lat="46.80557" lon="4.26903">
        <ele>648.22228688</ele>
        <time>2020-06-07T12:43:40Z</time>
      </trkpt>
      <trkpt lat="46.80565" lon="4.2691">
        <ele>652.22258104</ele>
        <time>2020-06-07T12:44:12Z</time>
      </trkpt>
      <trkpt lat="46.8057" lon="4.26921">
        <ele>651.22278332</ele>
        <time>2020-06-07T12:45:15Z</time>
      </trkpt>
      <trkpt lat="46.80577" lon="4.26929">
        <ele>653.22307868</ele>
        <time>2020-06-07T12:45:40Z</time>
      </trkpt>
      <trkpt lat="46.80577" lon="4.26946">
        <ele>644.2230836</ele>
        <time>2020-06-07T12:45:49Z</time>
      </trkpt>
      <trkpt lat="46.80568" lon="4.26956">
        <ele>644.2227212</ele>
        <time>2020-06-07T12:45:59Z</time>
      </trkpt>
      <trkpt lat="46.80563" lon="4.26971">
        <ele>640.22253336</ele>
        <time>2020-06-07T12:46:08Z</time>
      </trkpt>
      <trkpt lat="46.80554" lon="4.26978">
        <ele>641.22217248</ele>
        <time>2020-06-07T12:46:18Z</time>
      </trkpt>
      <trkpt lat="46.80551" lon="4.26992">
        <ele>641.22203452</ele>
        <time>2020-06-07T12:46:28Z</time>
      </trkpt>
      <trkpt lat="46.80542" lon="4.27007">
        <ele>641.22167352</ele>
        <time>2020-06-07T12:46:38Z</time>
      </trkpt>
      <trkpt lat="46.80539" lon="4.27019">
        <ele>652.22156336</ele>
        <time>2020-06-07T12:46:58Z</time>
      </trkpt>
      <trkpt lat="46.80534" lon="4.27033">
        <ele>653.22136748</ele>
        <time>2020-06-07T12:47:08Z</time>
      </trkpt>
      <trkpt lat="46.80527" lon="4.27046">
        <ele>656.22108996</ele>
        <time>2020-06-07T12:47:17Z</time>
      </trkpt>
      <trkpt lat="46.80519" lon="4.2706">
        <ele>656.22074784</ele>
        <time>2020-06-07T12:47:27Z</time>
      </trkpt>
      <trkpt lat="46.80512" lon="4.27072">
        <ele>655.22047212</ele>
        <time>2020-06-07T12:47:36Z</time>
      </trkpt>
      <trkpt lat="46.80505" lon="4.27086">
        <ele>656.22019104</ele>
        <time>2020-06-07T12:47:46Z</time>
      </trkpt>
      <trkpt lat="46.80498" lon="4.27099">
        <ele>659.21991844</ele>
        <time>2020-06-07T12:47:55Z</time>
      </trkpt>
      <trkpt lat="46.80498" lon="4.27111">
        <ele>656.21990876</ele>
        <time>2020-06-07T12:48:11Z</time>
      </trkpt>
      <trkpt lat="46.80491" lon="4.27127">
        <ele>657.21964948</ele>
        <time>2020-06-07T12:48:21Z</time>
      </trkpt>
      <trkpt lat="46.80477" lon="4.27131">
        <ele>658.21907364</ele>
        <time>2020-06-07T12:48:31Z</time>
      </trkpt>
      <trkpt lat="46.80468" lon="4.27143">
        <ele>659.21872496</ele>
        <time>2020-06-07T12:48:41Z</time>
      </trkpt>
      <trkpt lat="46.80457" lon="4.2715">
        <ele>663.21828772</ele>
        <time>2020-06-07T12:48:50Z</time>
      </trkpt>
      <trkpt lat="46.8045" lon="4.27155">
        <ele>661.21800596</ele>
        <time>2020-06-07T12:49:02Z</time>
      </trkpt>
      <trkpt lat="46.80444" lon="4.27167">
        <ele>664.21775656</ele>
        <time>2020-06-07T12:49:11Z</time>
      </trkpt>
      <trkpt lat="46.80433" lon="4.27173">
        <ele>661.21731076</ele>
        <time>2020-06-07T12:49:20Z</time>
      </trkpt>
      <trkpt lat="46.80425" lon="4.27183">
        <ele>665.21700632</ele>
        <time>2020-06-07T12:49:29Z</time>
      </trkpt>
      <trkpt lat="46.80414" lon="4.27191">
        <ele>662.21655472</ele>
        <time>2020-06-07T12:49:39Z</time>
      </trkpt>
      <trkpt lat="46.80401" lon="4.27192">
        <ele>660.21604684</ele>
        <time>2020-06-07T12:49:48Z</time>
      </trkpt>
      <trkpt lat="46.80398" lon="4.27207">
        <ele>666.21591204</ele>
        <time>2020-06-07T12:49:58Z</time>
      </trkpt>
      <trkpt lat="46.80392" lon="4.2722">
        <ele>662.21566332</ele>
        <time>2020-06-07T12:50:07Z</time>
      </trkpt>
      <trkpt lat="46.80384" lon="4.27231">
        <ele>657.21535696</ele>
        <time>2020-06-07T12:50:17Z</time>
      </trkpt>
      <trkpt lat="46.80373" lon="4.2724">
        <ele>658.2149186</ele>
        <time>2020-06-07T12:50:27Z</time>
      </trkpt>
      <trkpt lat="46.80364" lon="4.27243">
        <ele>655.21455368</ele>
        <time>2020-06-07T12:50:36Z</time>
      </trkpt>
      <trkpt lat="46.80356" lon="4.27245">
        <ele>656.21422956</ele>
        <time>2020-06-07T12:50:45Z</time>
      </trkpt>
      <trkpt lat="46.80359" lon="4.27255">
        <ele>653.21434388</ele>
        <time>2020-06-07T12:51:28Z</time>
      </trkpt>
      <trkpt lat="46.80365" lon="4.27274">
        <ele>651.21459808</ele>
        <time>2020-06-07T12:51:37Z</time>
      </trkpt>
      <trkpt lat="46.80371" lon="4.27285">
        <ele>650.21484492</ele>
        <time>2020-06-07T12:51:46Z</time>
      </trkpt>
      <trkpt lat="46.80375" lon="4.27299">
        <ele>644.21501092</ele>
        <time>2020-06-07T12:51:56Z</time>
      </trkpt>
      <trkpt lat="46.80382" lon="4.27317">
        <ele>653.21526044</ele>
        <time>2020-06-07T12:52:06Z</time>
      </trkpt>
      <trkpt lat="46.80387" lon="4.27335">
        <ele>649.2154756</ele>
        <time>2020-06-07T12:52:15Z</time>
      </trkpt>
      <trkpt lat="46.80388" lon="4.27349">
        <ele>651.21553056</ele>
        <time>2020-06-07T12:52:24Z</time>
      </trkpt>
      <trkpt lat="46.80388" lon="4.27361">
        <ele>654.21553788</ele>
        <time>2020-06-07T12:52:34Z</time>
      </trkpt>
      <trkpt lat="46.80392" lon="4.27379">
        <ele>652.21569492</ele>
        <time>2020-06-07T12:52:44Z</time>
      </trkpt>
      <trkpt lat="46.80398" lon="4.27391">
        <ele>654.21590336</ele>
        <time>2020-06-07T12:52:54Z</time>
      </trkpt>
      <trkpt lat="46.80401" lon="4.27407">
        <ele>654.21604388</ele>
        <time>2020-06-07T12:53:03Z</time>
      </trkpt>
      <trkpt lat="46.80403" lon="4.27422">
        <ele>656.21611</ele>
        <time>2020-06-07T12:53:12Z</time>
      </trkpt>
      <trkpt lat="46.80405" lon="4.2744">
        <ele>656.21621572</ele>
        <time>2020-06-07T12:53:21Z</time>
      </trkpt>
      <trkpt lat="46.80407" lon="4.27453">
        <ele>658.21626136</ele>
        <time>2020-06-07T12:53:34Z</time>
      </trkpt>
      <trkpt lat="46.80412" lon="4.27464">
        <ele>659.21646284</ele>
        <time>2020-06-07T12:53:43Z</time>
      </trkpt>
      <trkpt lat="46.80416" lon="4.27477">
        <ele>662.21664984</ele>
        <time>2020-06-07T12:53:53Z</time>
      </trkpt>
      <trkpt lat="46.80421" lon="4.27495">
        <ele>660.21683524</ele>
        <time>2020-06-07T12:54:02Z</time>
      </trkpt>
      <trkpt lat="46.80426" lon="4.27515">
        <ele>656.2170542</ele>
        <time>2020-06-07T12:54:12Z</time>
      </trkpt>
      <trkpt lat="46.80434" lon="4.2752">
        <ele>663.21737192</ele>
        <time>2020-06-07T12:54:24Z</time>
      </trkpt>
      <trkpt lat="46.80442" lon="4.27541">
        <ele>658.21767328</ele>
        <time>2020-06-07T12:54:34Z</time>
      </trkpt>
      <trkpt lat="46.80447" lon="4.27549">
        <ele>659.21789092</ele>
        <time>2020-06-07T12:54:45Z</time>
      </trkpt>
      <trkpt lat="46.80451" lon="4.27565">
        <ele>662.2180386</ele>
        <time>2020-06-07T12:54:55Z</time>
      </trkpt>
      <trkpt lat="46.80454" lon="4.27577">
        <ele>659.21817608</ele>
        <time>2020-06-07T12:55:10Z</time>
      </trkpt>
      <trkpt lat="46.80459" lon="4.27589">
        <ele>664.21835944</ele>
        <time>2020-06-07T12:55:20Z</time>
      </trkpt>
      <trkpt lat="46.80473" lon="4.27592">
        <ele>664.21892988</ele>
        <time>2020-06-07T12:55:29Z</time>
      </trkpt>
      <trkpt lat="46.80482" lon="4.27598">
        <ele>663.21926712</ele>
        <time>2020-06-07T12:55:39Z</time>
      </trkpt>
      <trkpt lat="46.8049" lon="4.27612">
        <ele>664.2196166</ele>
        <time>2020-06-07T12:55:49Z</time>
      </trkpt>
      <trkpt lat="46.80498" lon="4.27621">
        <ele>664.2199248</ele>
        <time>2020-06-07T12:55:58Z</time>
      </trkpt>
      <trkpt lat="46.80512" lon="4.27627">
        <ele>660.22049356</ele>
        <time>2020-06-07T12:56:08Z</time>
      </trkpt>
      <trkpt lat="46.8052" lon="4.27621">
        <ele>665.220803</ele>
        <time>2020-06-07T12:56:23Z</time>
      </trkpt>
      <trkpt lat="46.80527" lon="4.27628">
        <ele>663.2210776</ele>
        <time>2020-06-07T12:57:19Z</time>
      </trkpt>
      <trkpt lat="46.80529" lon="4.27641">
        <ele>664.22114124</ele>
        <time>2020-06-07T12:57:28Z</time>
      </trkpt>
      <trkpt lat="46.80543" lon="4.27653">
        <ele>659.22170184</ele>
        <time>2020-06-07T12:57:37Z</time>
      </trkpt>
      <trkpt lat="46.80554" lon="4.27656">
        <ele>659.22214768</ele>
        <time>2020-06-07T12:57:47Z</time>
      </trkpt>
      <trkpt lat="46.80563" lon="4.27648">
        <ele>657.22252224</ele>
        <time>2020-06-07T12:57:57Z</time>
      </trkpt>
      <trkpt lat="46.80568" lon="4.27634">
        <ele>658.22273668</ele>
        <time>2020-06-07T12:58:07Z</time>
      </trkpt>
      <trkpt lat="46.80579" lon="4.27623">
        <ele>657.22316372</ele>
        <time>2020-06-07T12:58:16Z</time>
      </trkpt>
      <trkpt lat="46.80596" lon="4.27635">
        <ele>656.22384808</ele>
        <time>2020-06-07T12:58:26Z</time>
      </trkpt>
      <trkpt lat="46.80606" lon="4.27653">
        <ele>660.22421912</ele>
        <time>2020-06-07T12:58:35Z</time>
      </trkpt>
      <trkpt lat="46.80614" lon="4.27669">
        <ele>661.22457516</ele>
        <time>2020-06-07T12:58:45Z</time>
      </trkpt>
      <trkpt lat="46.80622" lon="4.27675">
        <ele>655.22489524</ele>
        <time>2020-06-07T12:58:55Z</time>
      </trkpt>
      <trkpt lat="46.80622" lon="4.2769">
        <ele>654.22487004</ele>
        <time>2020-06-07T12:59:05Z</time>
      </trkpt>
      <trkpt lat="46.80629" lon="4.27705">
        <ele>650.22514344</ele>
        <time>2020-06-07T12:59:15Z</time>
      </trkpt>
      <trkpt lat="46.80638" lon="4.27718">
        <ele>650.225517</ele>
        <time>2020-06-07T12:59:24Z</time>
      </trkpt>
      <trkpt lat="46.80644" lon="4.27734">
        <ele>648.22574568</ele>
        <time>2020-06-07T12:59:34Z</time>
      </trkpt>
      <trkpt lat="46.80648" lon="4.27747">
        <ele>650.22590032</ele>
        <time>2020-06-07T12:59:43Z</time>
      </trkpt>
      <trkpt lat="46.80655" lon="4.27753">
        <ele>647.22620584</ele>
        <time>2020-06-07T12:59:54Z</time>
      </trkpt>
      <trkpt lat="46.80666" lon="4.2776">
        <ele>648.22663756</ele>
        <time>2020-06-07T13:00:04Z</time>
      </trkpt>
      <trkpt lat="46.80677" lon="4.27766">
        <ele>648.22707048</ele>
        <time>2020-06-07T13:00:14Z</time>
      </trkpt>
      <trkpt lat="46.80689" lon="4.27768">
        <ele>648.22756024</ele>
        <time>2020-06-07T13:00:23Z</time>
      </trkpt>
      <trkpt lat="46.80702" lon="4.27762">
        <ele>638.22808516</ele>
        <time>2020-06-07T13:00:33Z</time>
      </trkpt>
      <trkpt lat="46.80715" lon="4.27758">
        <ele>637.22858656</ele>
        <time>2020-06-07T13:00:43Z</time>
      </trkpt>
      <trkpt lat="46.80728" lon="4.27756">
        <ele>642.22910904</ele>
        <time>2020-06-07T13:00:52Z</time>
      </trkpt>
      <trkpt lat="46.80737" lon="4.27766">
        <ele>638.22946276</ele>
        <time>2020-06-07T13:01:01Z</time>
      </trkpt>
      <trkpt lat="46.80745" lon="4.27778">
        <ele>636.22980848</ele>
        <time>2020-06-07T13:01:11Z</time>
      </trkpt>
      <trkpt lat="46.80756" lon="4.27786">
        <ele>635.23024552</ele>
        <time>2020-06-07T13:01:21Z</time>
      </trkpt>
      <trkpt lat="46.80763" lon="4.27798">
        <ele>634.23052136</ele>
        <time>2020-06-07T13:01:30Z</time>
      </trkpt>
      <trkpt lat="46.80769" lon="4.27811">
        <ele>628.2307386</ele>
        <time>2020-06-07T13:01:39Z</time>
      </trkpt>
      <trkpt lat="46.80775" lon="4.27823">
        <ele>628.23100612</ele>
        <time>2020-06-07T13:01:49Z</time>
      </trkpt>
      <trkpt lat="46.80778" lon="4.27835">
        <ele>629.23111992</ele>
        <time>2020-06-07T13:01:59Z</time>
      </trkpt>
      <trkpt lat="46.8078" lon="4.27855">
        <ele>629.2312052</ele>
        <time>2020-06-07T13:02:08Z</time>
      </trkpt>
      <trkpt lat="46.80783" lon="4.2787">
        <ele>632.23131156</ele>
        <time>2020-06-07T13:02:17Z</time>
      </trkpt>
      <trkpt lat="46.80789" lon="4.27888">
        <ele>628.23156192</ele>
        <time>2020-06-07T13:02:27Z</time>
      </trkpt>
      <trkpt lat="46.80791" lon="4.279">
        <ele>633.23163228</ele>
        <time>2020-06-07T13:02:37Z</time>
      </trkpt>
      <trkpt lat="46.80798" lon="4.2792">
        <ele>640.23191944</ele>
        <time>2020-06-07T13:02:47Z</time>
      </trkpt>
      <trkpt lat="46.80803" lon="4.27933">
        <ele>637.23211612</ele>
        <time>2020-06-07T13:02:56Z</time>
      </trkpt>
      <trkpt lat="46.8081" lon="4.27952">
        <ele>636.23237928</ele>
        <time>2020-06-07T13:03:06Z</time>
      </trkpt>
      <trkpt lat="46.80811" lon="4.27969">
        <ele>635.23242916</ele>
        <time>2020-06-07T13:03:16Z</time>
      </trkpt>
      <trkpt lat="46.8081" lon="4.27982">
        <ele>632.2323944</ele>
        <time>2020-06-07T13:03:25Z</time>
      </trkpt>
      <trkpt lat="46.80816" lon="4.27998">
        <ele>629.23262844</ele>
        <time>2020-06-07T13:03:34Z</time>
      </trkpt>
      <trkpt lat="46.8082" lon="4.28012">
        <ele>632.23278804</ele>
        <time>2020-06-07T13:03:44Z</time>
      </trkpt>
      <trkpt lat="46.80824" lon="4.2803">
        <ele>632.2329724</ele>
        <time>2020-06-07T13:03:53Z</time>
      </trkpt>
      <trkpt lat="46.80829" lon="4.28046">
        <ele>631.23316552</ele>
        <time>2020-06-07T13:04:03Z</time>
      </trkpt>
      <trkpt lat="46.80837" lon="4.28066">
        <ele>633.2334786</ele>
        <time>2020-06-07T13:04:13Z</time>
      </trkpt>
      <trkpt lat="46.80837" lon="4.28081">
        <ele>631.23347416</ele>
        <time>2020-06-07T13:04:22Z</time>
      </trkpt>
      <trkpt lat="46.80837" lon="4.28096">
        <ele>639.2334682</ele>
        <time>2020-06-07T13:04:32Z</time>
      </trkpt>
      <trkpt lat="46.80842" lon="4.28117">
        <ele>633.23368716</ele>
        <time>2020-06-07T13:04:42Z</time>
      </trkpt>
      <trkpt lat="46.8084" lon="4.28134">
        <ele>631.23360388</ele>
        <time>2020-06-07T13:04:52Z</time>
      </trkpt>
      <trkpt lat="46.80839" lon="4.28149">
        <ele>628.23357388</ele>
        <time>2020-06-07T13:05:01Z</time>
      </trkpt>
      <trkpt lat="46.80839" lon="4.28168">
        <ele>625.23356508</ele>
        <time>2020-06-07T13:05:10Z</time>
      </trkpt>
      <trkpt lat="46.80836" lon="4.28184">
        <ele>629.2334394</ele>
        <time>2020-06-07T13:05:20Z</time>
      </trkpt>
      <trkpt lat="46.80837" lon="4.28203">
        <ele>630.23349544</ele>
        <time>2020-06-07T13:05:29Z</time>
      </trkpt>
      <trkpt lat="46.80837" lon="4.28215">
        <ele>629.23348924</ele>
        <time>2020-06-07T13:05:39Z</time>
      </trkpt>
      <trkpt lat="46.80835" lon="4.28235">
        <ele>626.23340028</ele>
        <time>2020-06-07T13:05:48Z</time>
      </trkpt>
      <trkpt lat="46.80834" lon="4.28255">
        <ele>633.2333764</ele>
        <time>2020-06-07T13:05:57Z</time>
      </trkpt>
      <trkpt lat="46.80832" lon="4.2827">
        <ele>634.23326364</ele>
        <time>2020-06-07T13:06:07Z</time>
      </trkpt>
      <trkpt lat="46.80831" lon="4.28287">
        <ele>633.23323692</ele>
        <time>2020-06-07T13:06:17Z</time>
      </trkpt>
      <trkpt lat="46.8083" lon="4.28307">
        <ele>632.23321348</ele>
        <time>2020-06-07T13:06:26Z</time>
      </trkpt>
      <trkpt lat="46.80829" lon="4.2832">
        <ele>628.23316724</ele>
        <time>2020-06-07T13:06:35Z</time>
      </trkpt>
      <trkpt lat="46.80828" lon="4.28331">
        <ele>629.23313156</ele>
        <time>2020-06-07T13:06:44Z</time>
      </trkpt>
      <trkpt lat="46.80827" lon="4.28349">
        <ele>625.23306516</ele>
        <time>2020-06-07T13:06:53Z</time>
      </trkpt>
      <trkpt lat="46.80826" lon="4.28369">
        <ele>627.23304016</ele>
        <time>2020-06-07T13:07:03Z</time>
      </trkpt>
      <trkpt lat="46.80827" lon="4.28388">
        <ele>631.23307504</ele>
        <time>2020-06-07T13:07:13Z</time>
      </trkpt>
      <trkpt lat="46.80823" lon="4.28403">
        <ele>634.2329368</ele>
        <time>2020-06-07T13:07:22Z</time>
      </trkpt>
      <trkpt lat="46.80816" lon="4.28399">
        <ele>636.23263888</ele>
        <time>2020-06-07T13:07:46Z</time>
      </trkpt>
      <trkpt lat="46.80805" lon="4.28385">
        <ele>636.23220776</ele>
        <time>2020-06-07T13:07:55Z</time>
      </trkpt>
      <trkpt lat="46.808" lon="4.28376">
        <ele>634.23199256</ele>
        <time>2020-06-07T13:08:11Z</time>
      </trkpt>
      <trkpt lat="46.80787" lon="4.28361">
        <ele>631.23148764</ele>
        <time>2020-06-07T13:08:20Z</time>
      </trkpt>
      <trkpt lat="46.80776" lon="4.28351">
        <ele>633.23102312</ele>
        <time>2020-06-07T13:08:29Z</time>
      </trkpt>
      <trkpt lat="46.80767" lon="4.28346">
        <ele>635.23069144</ele>
        <time>2020-06-07T13:08:38Z</time>
      </trkpt>
      <trkpt lat="46.80759" lon="4.28341">
        <ele>637.23037244</ele>
        <time>2020-06-07T13:08:47Z</time>
      </trkpt>
      <trkpt lat="46.8075" lon="4.28333">
        <ele>635.230011</ele>
        <time>2020-06-07T13:08:56Z</time>
      </trkpt>
      <trkpt lat="46.80737" lon="4.2833">
        <ele>634.22945856</ele>
        <time>2020-06-07T13:09:05Z</time>
      </trkpt>
      <trkpt lat="46.80722" lon="4.28329">
        <ele>635.2288752</ele>
        <time>2020-06-07T13:09:15Z</time>
      </trkpt>
      <trkpt lat="46.80713" lon="4.28328">
        <ele>634.22851896</ele>
        <time>2020-06-07T13:09:24Z</time>
      </trkpt>
      <trkpt lat="46.80701" lon="4.28327">
        <ele>635.22802932</ele>
        <time>2020-06-07T13:09:33Z</time>
      </trkpt>
      <trkpt lat="46.80691" lon="4.28325">
        <ele>640.22764432</ele>
        <time>2020-06-07T13:09:42Z</time>
      </trkpt>
      <trkpt lat="46.80678" lon="4.28318">
        <ele>641.22713048</ele>
        <time>2020-06-07T13:09:52Z</time>
      </trkpt>
      <trkpt lat="46.80666" lon="4.28316">
        <ele>646.22664</ele>
        <time>2020-06-07T13:10:02Z</time>
      </trkpt>
      <trkpt lat="46.80655" lon="4.28319">
        <ele>645.22618728</ele>
        <time>2020-06-07T13:10:11Z</time>
      </trkpt>
      <trkpt lat="46.80643" lon="4.28316">
        <ele>646.22573128</ele>
        <time>2020-06-07T13:10:20Z</time>
      </trkpt>
      <trkpt lat="46.80631" lon="4.28313">
        <ele>643.2252502</ele>
        <time>2020-06-07T13:10:30Z</time>
      </trkpt>
      <trkpt lat="46.80621" lon="4.28313">
        <ele>644.22484604</ele>
        <time>2020-06-07T13:10:39Z</time>
      </trkpt>
      <trkpt lat="46.80611" lon="4.28308">
        <ele>641.22444852</ele>
        <time>2020-06-07T13:10:49Z</time>
      </trkpt>
      <trkpt lat="46.806" lon="4.28313">
        <ele>640.22400036</ele>
        <time>2020-06-07T13:10:59Z</time>
      </trkpt>
      <trkpt lat="46.80589" lon="4.28317">
        <ele>641.22357032</ele>
        <time>2020-06-07T13:11:08Z</time>
      </trkpt>
      <trkpt lat="46.80577" lon="4.28315">
        <ele>642.22308616</ele>
        <time>2020-06-07T13:11:18Z</time>
      </trkpt>
      <trkpt lat="46.80566" lon="4.28311">
        <ele>640.22262124</ele>
        <time>2020-06-07T13:11:27Z</time>
      </trkpt>
      <trkpt lat="46.80552" lon="4.28308">
        <ele>640.22209768</ele>
        <time>2020-06-07T13:11:37Z</time>
      </trkpt>
      <trkpt lat="46.80543" lon="4.283">
        <ele>642.2217262</ele>
        <time>2020-06-07T13:11:46Z</time>
      </trkpt>
      <trkpt lat="46.80535" lon="4.28303">
        <ele>642.22139028</ele>
        <time>2020-06-07T13:12:09Z</time>
      </trkpt>
      <trkpt lat="46.80527" lon="4.283">
        <ele>642.22106536</ele>
        <time>2020-06-07T13:12:18Z</time>
      </trkpt>
      <trkpt lat="46.80515" lon="4.28299">
        <ele>642.22059976</ele>
        <time>2020-06-07T13:12:27Z</time>
      </trkpt>
      <trkpt lat="46.80505" lon="4.28306">
        <ele>647.22021496</ele>
        <time>2020-06-07T13:12:36Z</time>
      </trkpt>
      <trkpt lat="46.80499" lon="4.28316">
        <ele>644.21996784</ele>
        <time>2020-06-07T13:12:45Z</time>
      </trkpt>
      <trkpt lat="46.80493" lon="4.28325">
        <ele>642.2197166</ele>
        <time>2020-06-07T13:12:55Z</time>
      </trkpt>
      <trkpt lat="46.80484" lon="4.28327">
        <ele>640.21936644</ele>
        <time>2020-06-07T13:13:05Z</time>
      </trkpt>
      <trkpt lat="46.80476" lon="4.28332">
        <ele>638.21903496</ele>
        <time>2020-06-07T13:13:15Z</time>
      </trkpt>
      <trkpt lat="46.80468" lon="4.28343">
        <ele>635.21873556</ele>
        <time>2020-06-07T13:13:24Z</time>
      </trkpt>
      <trkpt lat="46.80459" lon="4.28351">
        <ele>640.21834552</ele>
        <time>2020-06-07T13:13:34Z</time>
      </trkpt>
      <trkpt lat="46.8045" lon="4.2836">
        <ele>637.21800836</ele>
        <time>2020-06-07T13:13:43Z</time>
      </trkpt>
      <trkpt lat="46.80442" lon="4.28363">
        <ele>638.21768556</ele>
        <time>2020-06-07T13:13:52Z</time>
      </trkpt>
      <trkpt lat="46.80431" lon="4.28367">
        <ele>639.21723036</ele>
        <time>2020-06-07T13:14:02Z</time>
      </trkpt>
      <trkpt lat="46.80419" lon="4.2837">
        <ele>638.21674232</ele>
        <time>2020-06-07T13:14:11Z</time>
      </trkpt>
      <trkpt lat="46.80406" lon="4.28371">
        <ele>638.21625712</ele>
        <time>2020-06-07T13:14:21Z</time>
      </trkpt>
      <trkpt lat="46.80396" lon="4.28368">
        <ele>637.21583012</ele>
        <time>2020-06-07T13:14:30Z</time>
      </trkpt>
      <trkpt lat="46.80387" lon="4.28369">
        <ele>634.21548964</ele>
        <time>2020-06-07T13:14:40Z</time>
      </trkpt>
      <trkpt lat="46.80377" lon="4.28366">
        <ele>637.21506596</ele>
        <time>2020-06-07T13:14:49Z</time>
      </trkpt>
      <trkpt lat="46.80365" lon="4.28366">
        <ele>635.21458604</ele>
        <time>2020-06-07T13:14:59Z</time>
      </trkpt>
      <trkpt lat="46.80354" lon="4.28364">
        <ele>631.21413804</ele>
        <time>2020-06-07T13:15:08Z</time>
      </trkpt>
      <trkpt lat="46.80344" lon="4.28362">
        <ele>636.21376028</ele>
        <time>2020-06-07T13:15:17Z</time>
      </trkpt>
      <trkpt lat="46.80334" lon="4.28366">
        <ele>638.2133604</ele>
        <time>2020-06-07T13:15:27Z</time>
      </trkpt>
      <trkpt lat="46.80325" lon="4.2837">
        <ele>638.21301264</ele>
        <time>2020-06-07T13:15:36Z</time>
      </trkpt>
      <trkpt lat="46.80316" lon="4.28368">
        <ele>642.21262996</ele>
        <time>2020-06-07T13:15:46Z</time>
      </trkpt>
      <trkpt lat="46.80308" lon="4.28375">
        <ele>640.21231104</ele>
        <time>2020-06-07T13:15:56Z</time>
      </trkpt>
      <trkpt lat="46.80298" lon="4.28383">
        <ele>633.21193488</ele>
        <time>2020-06-07T13:16:06Z</time>
      </trkpt>
      <trkpt lat="46.80292" lon="4.28386">
        <ele>630.21166704</ele>
        <time>2020-06-07T13:16:15Z</time>
      </trkpt>
      <trkpt lat="46.80279" lon="4.28399">
        <ele>630.2111462</ele>
        <time>2020-06-07T13:16:25Z</time>
      </trkpt>
      <trkpt lat="46.80265" lon="4.28397">
        <ele>636.21059536</ele>
        <time>2020-06-07T13:16:34Z</time>
      </trkpt>
      <trkpt lat="46.80255" lon="4.28398">
        <ele>637.21020276</ele>
        <time>2020-06-07T13:16:44Z</time>
      </trkpt>
      <trkpt lat="46.8025" lon="4.28415">
        <ele>638.20999664</ele>
        <time>2020-06-07T13:16:53Z</time>
      </trkpt>
      <trkpt lat="46.80243" lon="4.28424">
        <ele>637.20972076</ele>
        <time>2020-06-07T13:17:02Z</time>
      </trkpt>
      <trkpt lat="46.80234" lon="4.28436">
        <ele>636.20935136</ele>
        <time>2020-06-07T13:17:11Z</time>
      </trkpt>
      <trkpt lat="46.8022" lon="4.28443">
        <ele>638.2088098</ele>
        <time>2020-06-07T13:17:21Z</time>
      </trkpt>
      <trkpt lat="46.80211" lon="4.28443">
        <ele>639.20843416</ele>
        <time>2020-06-07T13:17:30Z</time>
      </trkpt>
      <trkpt lat="46.80202" lon="4.2844">
        <ele>638.2080918</ele>
        <time>2020-06-07T13:17:40Z</time>
      </trkpt>
      <trkpt lat="46.80189" lon="4.28446">
        <ele>636.20757044</ele>
        <time>2020-06-07T13:17:50Z</time>
      </trkpt>
      <trkpt lat="46.80179" lon="4.28441">
        <ele>642.20716304</ele>
        <time>2020-06-07T13:18:00Z</time>
      </trkpt>
      <trkpt lat="46.80171" lon="4.28438">
        <ele>644.20682724</ele>
        <time>2020-06-07T13:18:09Z</time>
      </trkpt>
      <trkpt lat="46.80163" lon="4.28424">
        <ele>642.2065248</ele>
        <time>2020-06-07T13:18:19Z</time>
      </trkpt>
      <trkpt lat="46.80154" lon="4.28422">
        <ele>637.20614404</ele>
        <time>2020-06-07T13:18:28Z</time>
      </trkpt>
      <trkpt lat="46.80145" lon="4.28415">
        <ele>636.20578432</ele>
        <time>2020-06-07T13:18:38Z</time>
      </trkpt>
      <trkpt lat="46.80137" lon="4.28408">
        <ele>628.205465</ele>
        <time>2020-06-07T13:18:48Z</time>
      </trkpt>
      <trkpt lat="46.80125" lon="4.28394">
        <ele>628.2049846</ele>
        <time>2020-06-07T13:18:57Z</time>
      </trkpt>
      <trkpt lat="46.80116" lon="4.28389">
        <ele>627.20465516</ele>
        <time>2020-06-07T13:19:08Z</time>
      </trkpt>
      <trkpt lat="46.80103" lon="4.28382">
        <ele>628.20413188</ele>
        <time>2020-06-07T13:19:18Z</time>
      </trkpt>
      <trkpt lat="46.80098" lon="4.28373">
        <ele>632.20393144</ele>
        <time>2020-06-07T13:19:28Z</time>
      </trkpt>
      <trkpt lat="46.8009" lon="4.28361">
        <ele>639.20357892</ele>
        <time>2020-06-07T13:19:37Z</time>
      </trkpt>
      <trkpt lat="46.80078" lon="4.28356">
        <ele>637.20311064</ele>
        <time>2020-06-07T13:19:46Z</time>
      </trkpt>
      <trkpt lat="46.80071" lon="4.28347">
        <ele>635.20284272</ele>
        <time>2020-06-07T13:19:58Z</time>
      </trkpt>
      <trkpt lat="46.80069" lon="4.28336">
        <ele>638.20275096</ele>
        <time>2020-06-07T13:20:27Z</time>
      </trkpt>
      <trkpt lat="46.80052" lon="4.28328">
        <ele>638.202096</ele>
        <time>2020-06-07T13:20:36Z</time>
      </trkpt>
      <trkpt lat="46.80042" lon="4.28322">
        <ele>644.20165884</ele>
        <time>2020-06-07T13:20:45Z</time>
      </trkpt>
      <trkpt lat="46.8003" lon="4.28317">
        <ele>637.20121088</ele>
        <time>2020-06-07T13:20:55Z</time>
      </trkpt>
      <trkpt lat="46.80018" lon="4.28309">
        <ele>636.2007144</ele>
        <time>2020-06-07T13:21:05Z</time>
      </trkpt>
      <trkpt lat="46.80008" lon="4.28309">
        <ele>633.2003152</ele>
        <time>2020-06-07T13:21:14Z</time>
      </trkpt>
      <trkpt lat="46.8" lon="4.28302">
        <ele>630.2000012</ele>
        <time>2020-06-07T13:21:24Z</time>
      </trkpt>
      <trkpt lat="46.79992" lon="4.28292">
        <ele>628.19967352</ele>
        <time>2020-06-07T13:21:34Z</time>
      </trkpt>
      <trkpt lat="46.79983" lon="4.28282">
        <ele>635.19931948</ele>
        <time>2020-06-07T13:21:43Z</time>
      </trkpt>
      <trkpt lat="46.7997" lon="4.28279">
        <ele>632.1988008</ele>
        <time>2020-06-07T13:21:53Z</time>
      </trkpt>
      <trkpt lat="46.79963" lon="4.28273">
        <ele>633.19849956</ele>
        <time>2020-06-07T13:22:02Z</time>
      </trkpt>
      <trkpt lat="46.79952" lon="4.28263">
        <ele>633.19807228</ele>
        <time>2020-06-07T13:22:12Z</time>
      </trkpt>
      <trkpt lat="46.79942" lon="4.28258">
        <ele>632.19769616</ele>
        <time>2020-06-07T13:22:21Z</time>
      </trkpt>
      <trkpt lat="46.79937" lon="4.28244">
        <ele>625.19749404</ele>
        <time>2020-06-07T13:22:31Z</time>
      </trkpt>
      <trkpt lat="46.79926" lon="4.28231">
        <ele>622.1970452</ele>
        <time>2020-06-07T13:22:41Z</time>
      </trkpt>
      <trkpt lat="46.79921" lon="4.28221">
        <ele>620.1968266</ele>
        <time>2020-06-07T13:22:53Z</time>
      </trkpt>
      <trkpt lat="46.79917" lon="4.28202">
        <ele>618.19667844</ele>
        <time>2020-06-07T13:23:02Z</time>
      </trkpt>
      <trkpt lat="46.79912" lon="4.28191">
        <ele>617.19648588</ele>
        <time>2020-06-07T13:23:11Z</time>
      </trkpt>
      <trkpt lat="46.79907" lon="4.28182">
        <ele>613.1962692</ele>
        <time>2020-06-07T13:23:27Z</time>
      </trkpt>
      <trkpt lat="46.799" lon="4.28174">
        <ele>614.19600412</ele>
        <time>2020-06-07T13:23:51Z</time>
      </trkpt>
      <trkpt lat="46.79891" lon="4.28163">
        <ele>613.19561964</ele>
        <time>2020-06-07T13:24:00Z</time>
      </trkpt>
      <trkpt lat="46.79883" lon="4.28156">
        <ele>612.19529804</ele>
        <time>2020-06-07T13:24:09Z</time>
      </trkpt>
      <trkpt lat="46.79877" lon="4.28145">
        <ele>612.19509316</ele>
        <time>2020-06-07T13:24:19Z</time>
      </trkpt>
      <trkpt lat="46.79876" lon="4.28129">
        <ele>614.19505736</ele>
        <time>2020-06-07T13:24:28Z</time>
      </trkpt>
      <trkpt lat="46.79887" lon="4.28119">
        <ele>614.19547228</ele>
        <time>2020-06-07T13:24:37Z</time>
      </trkpt>
      <trkpt lat="46.79896" lon="4.28112">
        <ele>611.19582536</ele>
        <time>2020-06-07T13:24:46Z</time>
      </trkpt>
      <trkpt lat="46.79898" lon="4.28099">
        <ele>613.19590468</ele>
        <time>2020-06-07T13:24:56Z</time>
      </trkpt>
      <trkpt lat="46.799" lon="4.28084">
        <ele>615.1960038</ele>
        <time>2020-06-07T13:25:05Z</time>
      </trkpt>
      <trkpt lat="46.79898" lon="4.28066">
        <ele>617.19592536</ele>
        <time>2020-06-07T13:25:15Z</time>
      </trkpt>
      <trkpt lat="46.79898" lon="4.28053">
        <ele>624.19592024</ele>
        <time>2020-06-07T13:25:32Z</time>
      </trkpt>
      <trkpt lat="46.79888" lon="4.28039">
        <ele>621.19552696</ele>
        <time>2020-06-07T13:25:42Z</time>
      </trkpt>
      <trkpt lat="46.79879" lon="4.28036">
        <ele>617.19516636</ele>
        <time>2020-06-07T13:25:52Z</time>
      </trkpt>
      <trkpt lat="46.79869" lon="4.28027">
        <ele>617.1947396</ele>
        <time>2020-06-07T13:26:01Z</time>
      </trkpt>
      <trkpt lat="46.79862" lon="4.28019">
        <ele>617.19447432</ele>
        <time>2020-06-07T13:26:12Z</time>
      </trkpt>
      <trkpt lat="46.7986" lon="4.28008">
        <ele>619.19441408</ele>
        <time>2020-06-07T13:26:23Z</time>
      </trkpt>
      <trkpt lat="46.79863" lon="4.27987">
        <ele>624.19450748</ele>
        <time>2020-06-07T13:26:32Z</time>
      </trkpt>
      <trkpt lat="46.79868" lon="4.2797">
        <ele>632.19471876</ele>
        <time>2020-06-07T13:26:41Z</time>
      </trkpt>
      <trkpt lat="46.79874" lon="4.27962">
        <ele>634.19496736</ele>
        <time>2020-06-07T13:26:51Z</time>
      </trkpt>
      <trkpt lat="46.79877" lon="4.27943">
        <ele>632.19505852</ele>
        <time>2020-06-07T13:27:00Z</time>
      </trkpt>
      <trkpt lat="46.79883" lon="4.27933">
        <ele>628.195338</ele>
        <time>2020-06-07T13:27:09Z</time>
      </trkpt>
      <trkpt lat="46.79888" lon="4.27918">
        <ele>626.19551388</ele>
        <time>2020-06-07T13:27:19Z</time>
      </trkpt>
      <trkpt lat="46.79893" lon="4.27908">
        <ele>626.1957312</ele>
        <time>2020-06-07T13:27:29Z</time>
      </trkpt>
      <trkpt lat="46.79899" lon="4.27882">
        <ele>626.19596224</ele>
        <time>2020-06-07T13:27:39Z</time>
      </trkpt>
      <trkpt lat="46.79913" lon="4.27874">
        <ele>626.19651004</ele>
        <time>2020-06-07T13:27:49Z</time>
      </trkpt>
      <trkpt lat="46.79918" lon="4.27864">
        <ele>627.19673216</ele>
        <time>2020-06-07T13:27:59Z</time>
      </trkpt>
      <trkpt lat="46.79924" lon="4.27854">
        <ele>625.19696332</ele>
        <time>2020-06-07T13:28:09Z</time>
      </trkpt>
      <trkpt lat="46.79931" lon="4.27846">
        <ele>621.19724608</ele>
        <time>2020-06-07T13:28:19Z</time>
      </trkpt>
      <trkpt lat="46.79938" lon="4.27834">
        <ele>616.19751572</ele>
        <time>2020-06-07T13:28:28Z</time>
      </trkpt>
      <trkpt lat="46.79946" lon="4.27826">
        <ele>613.1978338</ele>
        <time>2020-06-07T13:28:38Z</time>
      </trkpt>
      <trkpt lat="46.79949" lon="4.27814">
        <ele>611.19796548</ele>
        <time>2020-06-07T13:29:10Z</time>
      </trkpt>
      <trkpt lat="46.79959" lon="4.27813">
        <ele>609.19836808</ele>
        <time>2020-06-07T13:29:19Z</time>
      </trkpt>
      <trkpt lat="46.79966" lon="4.27803">
        <ele>609.1986192</ele>
        <time>2020-06-07T13:29:29Z</time>
      </trkpt>
      <trkpt lat="46.79973" lon="4.27798">
        <ele>611.19891572</ele>
        <time>2020-06-07T13:29:40Z</time>
      </trkpt>
      <trkpt lat="46.79986" lon="4.27793">
        <ele>611.19943856</ele>
        <time>2020-06-07T13:29:50Z</time>
      </trkpt>
      <trkpt lat="46.79992" lon="4.27776">
        <ele>611.19967488</ele>
        <time>2020-06-07T13:30:00Z</time>
      </trkpt>
      <trkpt lat="46.80006" lon="4.27771">
        <ele>617.200228</ele>
        <time>2020-06-07T13:30:09Z</time>
      </trkpt>
      <trkpt lat="46.80015" lon="4.27763">
        <ele>622.20058276</ele>
        <time>2020-06-07T13:30:19Z</time>
      </trkpt>
      <trkpt lat="46.80023" lon="4.2776">
        <ele>625.20093028</ele>
        <time>2020-06-07T13:30:40Z</time>
      </trkpt>
      <trkpt lat="46.80032" lon="4.27764">
        <ele>626.20126832</ele>
        <time>2020-06-07T13:30:50Z</time>
      </trkpt>
      <trkpt lat="46.80039" lon="4.2777">
        <ele>623.20155856</ele>
        <time>2020-06-07T13:31:34Z</time>
      </trkpt>
      <trkpt lat="46.80048" lon="4.27764">
        <ele>624.20190352</ele>
        <time>2020-06-07T13:31:44Z</time>
      </trkpt>
      <trkpt lat="46.80057" lon="4.2776">
        <ele>624.20228332</ele>
        <time>2020-06-07T13:31:54Z</time>
      </trkpt>
      <trkpt lat="46.80059" lon="4.27745">
        <ele>625.20235792</ele>
        <time>2020-06-07T13:32:03Z</time>
      </trkpt>
      <trkpt lat="46.80064" lon="4.27734">
        <ele>623.202544</ele>
        <time>2020-06-07T13:32:14Z</time>
      </trkpt>
      <trkpt lat="46.8007" lon="4.27722">
        <ele>625.2027922</ele>
        <time>2020-06-07T13:32:23Z</time>
      </trkpt>
      <trkpt lat="46.80078" lon="4.27719">
        <ele>625.20312196</ele>
        <time>2020-06-07T13:32:44Z</time>
      </trkpt>
      <trkpt lat="46.80083" lon="4.27705">
        <ele>626.20330744</ele>
        <time>2020-06-07T13:32:53Z</time>
      </trkpt>
      <trkpt lat="46.80089" lon="4.27696">
        <ele>625.20355716</ele>
        <time>2020-06-07T13:33:05Z</time>
      </trkpt>
      <trkpt lat="46.80102" lon="4.27689">
        <ele>623.204065</ele>
        <time>2020-06-07T13:33:15Z</time>
      </trkpt>
      <trkpt lat="46.80102" lon="4.27677">
        <ele>629.20408532</ele>
        <time>2020-06-07T13:33:25Z</time>
      </trkpt>
      <trkpt lat="46.80111" lon="4.2767">
        <ele>627.20444596</ele>
        <time>2020-06-07T13:33:34Z</time>
      </trkpt>
      <trkpt lat="46.80114" lon="4.27654">
        <ele>628.20456144</ele>
        <time>2020-06-07T13:33:43Z</time>
      </trkpt>
      <trkpt lat="46.80121" lon="4.27642">
        <ele>630.20483036</ele>
        <time>2020-06-07T13:33:52Z</time>
      </trkpt>
      <trkpt lat="46.80127" lon="4.27634">
        <ele>630.20507804</ele>
        <time>2020-06-07T13:34:03Z</time>
      </trkpt>
      <trkpt lat="46.80134" lon="4.27623">
        <ele>636.20537696</ele>
        <time>2020-06-07T13:34:13Z</time>
      </trkpt>
      <trkpt lat="46.80141" lon="4.27616">
        <ele>644.20565088</ele>
        <time>2020-06-07T13:34:23Z</time>
      </trkpt>
      <trkpt lat="46.80151" lon="4.27612">
        <ele>640.20604056</ele>
        <time>2020-06-07T13:34:32Z</time>
      </trkpt>
      <trkpt lat="46.80159" lon="4.27603">
        <ele>643.20634448</ele>
        <time>2020-06-07T13:34:42Z</time>
      </trkpt>
      <trkpt lat="46.80159" lon="4.27588">
        <ele>641.20637272</ele>
        <time>2020-06-07T13:34:52Z</time>
      </trkpt>
      <trkpt lat="46.80148" lon="4.27572">
        <ele>640.20589952</ele>
        <time>2020-06-07T13:35:02Z</time>
      </trkpt>
      <trkpt lat="46.80141" lon="4.27562">
        <ele>637.20563644</ele>
        <time>2020-06-07T13:35:11Z</time>
      </trkpt>
      <trkpt lat="46.80138" lon="4.27548">
        <ele>639.20552376</ele>
        <time>2020-06-07T13:35:21Z</time>
      </trkpt>
      <trkpt lat="46.80132" lon="4.27533">
        <ele>639.20528572</ele>
        <time>2020-06-07T13:35:31Z</time>
      </trkpt>
      <trkpt lat="46.80126" lon="4.27524">
        <ele>642.20503748</ele>
        <time>2020-06-07T13:35:42Z</time>
      </trkpt>
      <trkpt lat="46.8013" lon="4.27508">
        <ele>645.20518556</ele>
        <time>2020-06-07T13:35:52Z</time>
      </trkpt>
      <trkpt lat="46.8013" lon="4.27496">
        <ele>642.2052</ele>
        <time>2020-06-07T13:36:02Z</time>
      </trkpt>
      <trkpt lat="46.80127" lon="4.27481">
        <ele>646.20506084</ele>
        <time>2020-06-07T13:36:11Z</time>
      </trkpt>
      <trkpt lat="46.8012" lon="4.27459">
        <ele>645.20477928</ele>
        <time>2020-06-07T13:36:20Z</time>
      </trkpt>
      <trkpt lat="46.80113" lon="4.2745">
        <ele>643.2045252</ele>
        <time>2020-06-07T13:36:29Z</time>
      </trkpt>
      <trkpt lat="46.80111" lon="4.27435">
        <ele>646.20442424</ele>
        <time>2020-06-07T13:36:39Z</time>
      </trkpt>
      <trkpt lat="46.80113" lon="4.27423">
        <ele>652.20451372</ele>
        <time>2020-06-07T13:36:48Z</time>
      </trkpt>
      <trkpt lat="46.80111" lon="4.27406">
        <ele>649.20442936</ele>
        <time>2020-06-07T13:36:57Z</time>
      </trkpt>
      <trkpt lat="46.80102" lon="4.27397">
        <ele>647.20408348</ele>
        <time>2020-06-07T13:37:07Z</time>
      </trkpt>
      <trkpt lat="46.80107" lon="4.27383">
        <ele>652.20429036</ele>
        <time>2020-06-07T13:37:17Z</time>
      </trkpt>
      <trkpt lat="46.80112" lon="4.27371">
        <ele>652.20446368</ele>
        <time>2020-06-07T13:37:26Z</time>
      </trkpt>
      <trkpt lat="46.80108" lon="4.27361">
        <ele>654.20430488</ele>
        <time>2020-06-07T13:37:35Z</time>
      </trkpt>
      <trkpt lat="46.80102" lon="4.27349">
        <ele>655.20409672</ele>
        <time>2020-06-07T13:37:45Z</time>
      </trkpt>
      <trkpt lat="46.80105" lon="4.27333">
        <ele>654.2041784</ele>
        <time>2020-06-07T13:37:55Z</time>
      </trkpt>
      <trkpt lat="46.80102" lon="4.27318">
        <ele>654.20408</ele>
        <time>2020-06-07T13:38:04Z</time>
      </trkpt>
      <trkpt lat="46.80102" lon="4.27305">
        <ele>658.20409316</ele>
        <time>2020-06-07T13:38:13Z</time>
      </trkpt>
      <trkpt lat="46.80101" lon="4.27293">
        <ele>654.20402944</ele>
        <time>2020-06-07T13:38:22Z</time>
      </trkpt>
      <trkpt lat="46.80111" lon="4.27273">
        <ele>655.2044274</ele>
        <time>2020-06-07T13:38:32Z</time>
      </trkpt>
      <trkpt lat="46.80112" lon="4.27261">
        <ele>654.20446912</ele>
        <time>2020-06-07T13:38:42Z</time>
      </trkpt>
      <trkpt lat="46.8011" lon="4.27247">
        <ele>653.20439072</ele>
        <time>2020-06-07T13:38:51Z</time>
      </trkpt>
      <trkpt lat="46.80107" lon="4.27227">
        <ele>656.20426644</ele>
        <time>2020-06-07T13:39:01Z</time>
      </trkpt>
      <trkpt lat="46.80108" lon="4.2721">
        <ele>659.20429808</ele>
        <time>2020-06-07T13:39:11Z</time>
      </trkpt>
      <trkpt lat="46.80109" lon="4.27196">
        <ele>661.20436124</ele>
        <time>2020-06-07T13:39:20Z</time>
      </trkpt>
      <trkpt lat="46.80113" lon="4.27179">
        <ele>661.2045294</ele>
        <time>2020-06-07T13:39:30Z</time>
      </trkpt>
      <trkpt lat="46.80118" lon="4.27163">
        <ele>666.2047166</ele>
        <time>2020-06-07T13:39:40Z</time>
      </trkpt>
      <trkpt lat="46.80121" lon="4.27147">
        <ele>666.20482364</ele>
        <time>2020-06-07T13:39:49Z</time>
      </trkpt>
      <trkpt lat="46.80126" lon="4.27137">
        <ele>663.20503492</ele>
        <time>2020-06-07T13:39:59Z</time>
      </trkpt>
      <trkpt lat="46.80125" lon="4.27125">
        <ele>662.20500708</ele>
        <time>2020-06-07T13:40:08Z</time>
      </trkpt>
      <trkpt lat="46.80124" lon="4.27106">
        <ele>662.20493976</ele>
        <time>2020-06-07T13:40:17Z</time>
      </trkpt>
      <trkpt lat="46.80122" lon="4.27089">
        <ele>657.20488044</ele>
        <time>2020-06-07T13:40:27Z</time>
      </trkpt>
      <trkpt lat="46.80117" lon="4.27075">
        <ele>658.20466528</ele>
        <time>2020-06-07T13:40:37Z</time>
      </trkpt>
      <trkpt lat="46.80122" lon="4.27066">
        <ele>659.20488508</ele>
        <time>2020-06-07T13:40:47Z</time>
      </trkpt>
      <trkpt lat="46.80119" lon="4.27049">
        <ele>659.2047504</ele>
        <time>2020-06-07T13:40:57Z</time>
      </trkpt>
      <trkpt lat="46.80116" lon="4.27035">
        <ele>659.20464948</ele>
        <time>2020-06-07T13:41:06Z</time>
      </trkpt>
      <trkpt lat="46.80114" lon="4.27022">
        <ele>656.20455928</ele>
        <time>2020-06-07T13:41:16Z</time>
      </trkpt>
      <trkpt lat="46.80103" lon="4.27002">
        <ele>660.20411464</ele>
        <time>2020-06-07T13:41:26Z</time>
      </trkpt>
      <trkpt lat="46.80106" lon="4.26983">
        <ele>655.20424532</ele>
        <time>2020-06-07T13:41:35Z</time>
      </trkpt>
      <trkpt lat="46.80104" lon="4.26966">
        <ele>654.20417628</ele>
        <time>2020-06-07T13:41:45Z</time>
      </trkpt>
      <trkpt lat="46.80104" lon="4.26955">
        <ele>657.20414408</ele>
        <time>2020-06-07T13:41:54Z</time>
      </trkpt>
      <trkpt lat="46.80105" lon="4.26937">
        <ele>657.2042092</ele>
        <time>2020-06-07T13:42:04Z</time>
      </trkpt>
      <trkpt lat="46.80106" lon="4.2692">
        <ele>657.20425616</ele>
        <time>2020-06-07T13:42:14Z</time>
      </trkpt>
      <trkpt lat="46.80104" lon="4.26907">
        <ele>657.20415048</ele>
        <time>2020-06-07T13:42:23Z</time>
      </trkpt>
      <trkpt lat="46.80101" lon="4.26889">
        <ele>656.20402668</ele>
        <time>2020-06-07T13:42:33Z</time>
      </trkpt>
      <trkpt lat="46.801" lon="4.26869">
        <ele>652.20398284</ele>
        <time>2020-06-07T13:42:42Z</time>
      </trkpt>
      <trkpt lat="46.80093" lon="4.26855">
        <ele>660.203713</ele>
        <time>2020-06-07T13:42:52Z</time>
      </trkpt>
      <trkpt lat="46.801" lon="4.2684">
        <ele>661.20400888</ele>
        <time>2020-06-07T13:43:01Z</time>
      </trkpt>
      <trkpt lat="46.80097" lon="4.26825">
        <ele>663.2038846</ele>
        <time>2020-06-07T13:43:11Z</time>
      </trkpt>
      <trkpt lat="46.8009" lon="4.26816">
        <ele>661.20361592</ele>
        <time>2020-06-07T13:43:22Z</time>
      </trkpt>
      <trkpt lat="46.80083" lon="4.26823">
        <ele>662.20329924</ele>
        <time>2020-06-07T13:43:31Z</time>
      </trkpt>
      <trkpt lat="46.80077" lon="4.26845">
        <ele>656.20306212</ele>
        <time>2020-06-07T13:43:40Z</time>
      </trkpt>
      <trkpt lat="46.80069" lon="4.26857">
        <ele>661.202741</ele>
        <time>2020-06-07T13:43:49Z</time>
      </trkpt>
      <trkpt lat="46.80058" lon="4.26864">
        <ele>660.20232768</ele>
        <time>2020-06-07T13:43:59Z</time>
      </trkpt>
      <trkpt lat="46.80047" lon="4.26861">
        <ele>653.2018912</ele>
        <time>2020-06-07T13:44:09Z</time>
      </trkpt>
      <trkpt lat="46.80049" lon="4.26874">
        <ele>658.20194156</ele>
        <time>2020-06-07T13:44:21Z</time>
      </trkpt>
      <trkpt lat="46.80039" lon="4.26884">
        <ele>654.20156188</ele>
        <time>2020-06-07T13:44:30Z</time>
      </trkpt>
      <trkpt lat="46.80027" lon="4.26885">
        <ele>660.20106168</ele>
        <time>2020-06-07T13:44:40Z</time>
      </trkpt>
      <trkpt lat="46.80017" lon="4.2689">
        <ele>661.2006676</ele>
        <time>2020-06-07T13:44:49Z</time>
      </trkpt>
      <trkpt lat="46.80007" lon="4.26897">
        <ele>664.20026576</ele>
        <time>2020-06-07T13:44:59Z</time>
      </trkpt>
      <trkpt lat="46.79994" lon="4.26898">
        <ele>671.19977288</ele>
        <time>2020-06-07T13:45:08Z</time>
      </trkpt>
      <trkpt lat="46.79981" lon="4.26902">
        <ele>670.1992364</ele>
        <time>2020-06-07T13:45:18Z</time>
      </trkpt>
      <trkpt lat="46.79973" lon="4.269">
        <ele>674.19890764</ele>
        <time>2020-06-07T13:45:41Z</time>
      </trkpt>
      <trkpt lat="46.79965" lon="4.26901">
        <ele>671.1985912</ele>
        <time>2020-06-07T13:45:55Z</time>
      </trkpt>
      <trkpt lat="46.79953" lon="4.26898">
        <ele>666.19811816</ele>
        <time>2020-06-07T13:46:05Z</time>
      </trkpt>
      <trkpt lat="46.79945" lon="4.26896">
        <ele>663.19777852</ele>
        <time>2020-06-07T13:46:15Z</time>
      </trkpt>
      <trkpt lat="46.79935" lon="4.26898">
        <ele>661.19740352</ele>
        <time>2020-06-07T13:46:24Z</time>
      </trkpt>
      <trkpt lat="46.79927" lon="4.26906">
        <ele>659.197081</ele>
        <time>2020-06-07T13:46:33Z</time>
      </trkpt>
      <trkpt lat="46.79919" lon="4.2691">
        <ele>661.19675496</ele>
        <time>2020-06-07T13:46:47Z</time>
      </trkpt>
      <trkpt lat="46.7991" lon="4.26915">
        <ele>656.1964152</ele>
        <time>2020-06-07T13:46:56Z</time>
      </trkpt>
      <trkpt lat="46.79902" lon="4.26916">
        <ele>656.19607588</ele>
        <time>2020-06-07T13:48:01Z</time>
      </trkpt>
      <trkpt lat="46.79895" lon="4.26923">
        <ele>652.19580268</ele>
        <time>2020-06-07T13:48:15Z</time>
      </trkpt>
      <trkpt lat="46.79888" lon="4.26929">
        <ele>644.19550616</ele>
        <time>2020-06-07T13:48:25Z</time>
      </trkpt>
      <trkpt lat="46.7988" lon="4.26938">
        <ele>645.19518264</ele>
        <time>2020-06-07T13:48:34Z</time>
      </trkpt>
      <trkpt lat="46.79875" lon="4.26949">
        <ele>648.19500728</ele>
        <time>2020-06-07T13:48:44Z</time>
      </trkpt>
      <trkpt lat="46.79865" lon="4.26949">
        <ele>648.19461696</ele>
        <time>2020-06-07T13:48:54Z</time>
      </trkpt>
      <trkpt lat="46.79858" lon="4.26955">
        <ele>644.1943176</ele>
        <time>2020-06-07T13:49:03Z</time>
      </trkpt>
      <trkpt lat="46.79846" lon="4.26963">
        <ele>649.19381816</ele>
        <time>2020-06-07T13:49:12Z</time>
      </trkpt>
      <trkpt lat="46.79836" lon="4.26964">
        <ele>648.19345084</ele>
        <time>2020-06-07T13:49:21Z</time>
      </trkpt>
      <trkpt lat="46.79831" lon="4.26976">
        <ele>641.19324324</ele>
        <time>2020-06-07T13:49:30Z</time>
      </trkpt>
      <trkpt lat="46.7982" lon="4.26987">
        <ele>641.19279944</ele>
        <time>2020-06-07T13:49:40Z</time>
      </trkpt>
      <trkpt lat="46.7981" lon="4.26998">
        <ele>644.19240172</ele>
        <time>2020-06-07T13:49:49Z</time>
      </trkpt>
      <trkpt lat="46.79803" lon="4.27003">
        <ele>648.19210072</ele>
        <time>2020-06-07T13:50:03Z</time>
      </trkpt>
      <trkpt lat="46.79796" lon="4.27013">
        <ele>645.19183012</ele>
        <time>2020-06-07T13:50:13Z</time>
      </trkpt>
      <trkpt lat="46.79785" lon="4.27031">
        <ele>646.19141652</ele>
        <time>2020-06-07T13:50:22Z</time>
      </trkpt>
      <trkpt lat="46.79776" lon="4.2703">
        <ele>645.19103736</ele>
        <time>2020-06-07T13:50:32Z</time>
      </trkpt>
      <trkpt lat="46.79767" lon="4.27041">
        <ele>645.1906702</ele>
        <time>2020-06-07T13:50:41Z</time>
      </trkpt>
      <trkpt lat="46.79757" lon="4.27044">
        <ele>644.19027036</ele>
        <time>2020-06-07T13:50:51Z</time>
      </trkpt>
      <trkpt lat="46.79746" lon="4.27053">
        <ele>642.18983948</ele>
        <time>2020-06-07T13:51:00Z</time>
      </trkpt>
      <trkpt lat="46.79742" lon="4.27063">
        <ele>645.18968992</ele>
        <time>2020-06-07T13:51:09Z</time>
      </trkpt>
      <trkpt lat="46.79736" lon="4.27077">
        <ele>645.1894408</ele>
        <time>2020-06-07T13:51:18Z</time>
      </trkpt>
      <trkpt lat="46.7973" lon="4.27084">
        <ele>647.18918028</ele>
        <time>2020-06-07T13:51:28Z</time>
      </trkpt>
      <trkpt lat="46.79716" lon="4.27092">
        <ele>651.18865196</ele>
        <time>2020-06-07T13:51:38Z</time>
      </trkpt>
      <trkpt lat="46.79707" lon="4.27106">
        <ele>658.18828496</ele>
        <time>2020-06-07T13:51:48Z</time>
      </trkpt>
      <trkpt lat="46.79702" lon="4.27119">
        <ele>656.18807976</ele>
        <time>2020-06-07T13:51:58Z</time>
      </trkpt>
      <trkpt lat="46.79689" lon="4.27128">
        <ele>654.18757764</ele>
        <time>2020-06-07T13:52:08Z</time>
      </trkpt>
      <trkpt lat="46.79682" lon="4.27134">
        <ele>649.18729588</ele>
        <time>2020-06-07T13:52:17Z</time>
      </trkpt>
      <trkpt lat="46.79669" lon="4.27142">
        <ele>647.18676604</ele>
        <time>2020-06-07T13:52:27Z</time>
      </trkpt>
      <trkpt lat="46.79661" lon="4.27145">
        <ele>649.18645188</ele>
        <time>2020-06-07T13:52:37Z</time>
      </trkpt>
      <trkpt lat="46.79652" lon="4.27152">
        <ele>646.18606456</ele>
        <time>2020-06-07T13:52:47Z</time>
      </trkpt>
      <trkpt lat="46.79645" lon="4.27145">
        <ele>639.18580096</ele>
        <time>2020-06-07T13:53:14Z</time>
      </trkpt>
      <trkpt lat="46.79639" lon="4.27132">
        <ele>645.18554184</ele>
        <time>2020-06-07T13:53:23Z</time>
      </trkpt>
      <trkpt lat="46.7963" lon="4.27125">
        <ele>648.18519816</ele>
        <time>2020-06-07T13:53:33Z</time>
      </trkpt>
      <trkpt lat="46.79623" lon="4.27118">
        <ele>648.18492064</ele>
        <time>2020-06-07T13:53:42Z</time>
      </trkpt>
      <trkpt lat="46.79614" lon="4.27107">
        <ele>646.18456232</ele>
        <time>2020-06-07T13:53:51Z</time>
      </trkpt>
      <trkpt lat="46.79608" lon="4.27098">
        <ele>645.18430072</ele>
        <time>2020-06-07T13:54:05Z</time>
      </trkpt>
      <trkpt lat="46.796" lon="4.27082">
        <ele>648.1840092</ele>
        <time>2020-06-07T13:54:15Z</time>
      </trkpt>
      <trkpt lat="46.7959" lon="4.27075">
        <ele>652.18361524</ele>
        <time>2020-06-07T13:54:24Z</time>
      </trkpt>
      <trkpt lat="46.79579" lon="4.27066">
        <ele>647.18315412</ele>
        <time>2020-06-07T13:54:34Z</time>
      </trkpt>
      <trkpt lat="46.79573" lon="4.27057">
        <ele>651.1829376</ele>
        <time>2020-06-07T13:54:47Z</time>
      </trkpt>
      <trkpt lat="46.79563" lon="4.27047">
        <ele>652.18249808</ele>
        <time>2020-06-07T13:54:57Z</time>
      </trkpt>
      <trkpt lat="46.79556" lon="4.27042">
        <ele>650.18222996</ele>
        <time>2020-06-07T13:55:06Z</time>
      </trkpt>
      <trkpt lat="46.79551" lon="4.27024">
        <ele>652.18205768</ele>
        <time>2020-06-07T13:55:15Z</time>
      </trkpt>
      <trkpt lat="46.79546" lon="4.27015">
        <ele>649.181858</ele>
        <time>2020-06-07T13:55:30Z</time>
      </trkpt>
      <trkpt lat="46.7954" lon="4.27">
        <ele>646.18160484</ele>
        <time>2020-06-07T13:55:39Z</time>
      </trkpt>
      <trkpt lat="46.7954" lon="4.26988">
        <ele>648.18157904</ele>
        <time>2020-06-07T13:55:50Z</time>
      </trkpt>
      <trkpt lat="46.79532" lon="4.26965">
        <ele>648.18128876</ele>
        <time>2020-06-07T13:56:00Z</time>
      </trkpt>
      <trkpt lat="46.79528" lon="4.26953">
        <ele>649.18113612</ele>
        <time>2020-06-07T13:56:10Z</time>
      </trkpt>
      <trkpt lat="46.79522" lon="4.2694">
        <ele>643.18087652</ele>
        <time>2020-06-07T13:56:19Z</time>
      </trkpt>
      <trkpt lat="46.79517" lon="4.26927">
        <ele>647.180681</ele>
        <time>2020-06-07T13:56:29Z</time>
      </trkpt>
      <trkpt lat="46.7951" lon="4.26911">
        <ele>641.1803876</ele>
        <time>2020-06-07T13:56:38Z</time>
      </trkpt>
      <trkpt lat="46.79512" lon="4.269">
        <ele>641.18046692</ele>
        <time>2020-06-07T13:56:50Z</time>
      </trkpt>
      <trkpt lat="46.79508" lon="4.2688">
        <ele>640.1803362</ele>
        <time>2020-06-07T13:56:59Z</time>
      </trkpt>
      <trkpt lat="46.79504" lon="4.2687">
        <ele>639.1801502</ele>
        <time>2020-06-07T13:57:10Z</time>
      </trkpt>
      <trkpt lat="46.79494" lon="4.2686">
        <ele>635.17975544</ele>
        <time>2020-06-07T13:57:20Z</time>
      </trkpt>
      <trkpt lat="46.79488" lon="4.26846">
        <ele>633.17950148</ele>
        <time>2020-06-07T13:57:29Z</time>
      </trkpt>
      <trkpt lat="46.79486" lon="4.26825">
        <ele>637.17943992</ele>
        <time>2020-06-07T13:57:38Z</time>
      </trkpt>
      <trkpt lat="46.7949" lon="4.26811">
        <ele>642.17958848</ele>
        <time>2020-06-07T13:57:48Z</time>
      </trkpt>
      <trkpt lat="46.795" lon="4.26802">
        <ele>636.18000528</ele>
        <time>2020-06-07T13:57:58Z</time>
      </trkpt>
      <trkpt lat="46.79503" lon="4.26784">
        <ele>640.18011184</ele>
        <time>2020-06-07T13:58:08Z</time>
      </trkpt>
      <trkpt lat="46.79509" lon="4.26768">
        <ele>638.18037768</ele>
        <time>2020-06-07T13:58:17Z</time>
      </trkpt>
      <trkpt lat="46.79518" lon="4.26753">
        <ele>636.18071552</ele>
        <time>2020-06-07T13:58:26Z</time>
      </trkpt>
      <trkpt lat="46.79528" lon="4.26741">
        <ele>639.18113644</ele>
        <time>2020-06-07T13:58:36Z</time>
      </trkpt>
      <trkpt lat="46.79532" lon="4.26731">
        <ele>641.18128824</ele>
        <time>2020-06-07T13:58:45Z</time>
      </trkpt>
      <trkpt lat="46.79537" lon="4.26717">
        <ele>634.18148516</ele>
        <time>2020-06-07T13:58:54Z</time>
      </trkpt>
      <trkpt lat="46.79547" lon="4.2671">
        <ele>634.1818928</ele>
        <time>2020-06-07T13:59:03Z</time>
      </trkpt>
      <trkpt lat="46.79551" lon="4.26698">
        <ele>640.18203724</ele>
        <time>2020-06-07T13:59:15Z</time>
      </trkpt>
      <trkpt lat="46.7955" lon="4.26685">
        <ele>640.18199956</ele>
        <time>2020-06-07T13:59:25Z</time>
      </trkpt>
      <trkpt lat="46.79549" lon="4.26669">
        <ele>640.18194796</ele>
        <time>2020-06-07T13:59:34Z</time>
      </trkpt>
      <trkpt lat="46.79548" lon="4.26658">
        <ele>633.18190676</ele>
        <time>2020-06-07T13:59:46Z</time>
      </trkpt>
      <trkpt lat="46.79546" lon="4.26645">
        <ele>630.1818336</ele>
        <time>2020-06-07T14:00:01Z</time>
      </trkpt>
      <trkpt lat="46.79543" lon="4.26632">
        <ele>632.18170464</ele>
        <time>2020-06-07T14:00:10Z</time>
      </trkpt>
      <trkpt lat="46.79537" lon="4.2661">
        <ele>632.18147</ele>
        <time>2020-06-07T14:00:20Z</time>
      </trkpt>
      <trkpt lat="46.79531" lon="4.26588">
        <ele>630.18123984</ele>
        <time>2020-06-07T14:00:29Z</time>
      </trkpt>
      <trkpt lat="46.79538" lon="4.26581">
        <ele>633.18153236</ele>
        <time>2020-06-07T14:00:38Z</time>
      </trkpt>
      <trkpt lat="46.79548" lon="4.26569">
        <ele>634.18192812</ele>
        <time>2020-06-07T14:00:48Z</time>
      </trkpt>
      <trkpt lat="46.79559" lon="4.26556">
        <ele>633.1823554</ele>
        <time>2020-06-07T14:00:58Z</time>
      </trkpt>
      <trkpt lat="46.79567" lon="4.26551">
        <ele>631.18266156</ele>
        <time>2020-06-07T14:01:07Z</time>
      </trkpt>
      <trkpt lat="46.79573" lon="4.26544">
        <ele>629.18292656</ele>
        <time>2020-06-07T14:01:16Z</time>
      </trkpt>
      <trkpt lat="46.7958" lon="4.26528">
        <ele>631.18318584</ele>
        <time>2020-06-07T14:01:26Z</time>
      </trkpt>
      <trkpt lat="46.79589" lon="4.26519">
        <ele>631.18354768</ele>
        <time>2020-06-07T14:01:35Z</time>
      </trkpt>
      <trkpt lat="46.79599" lon="4.26517">
        <ele>630.18395312</ele>
        <time>2020-06-07T14:01:45Z</time>
      </trkpt>
      <trkpt lat="46.79612" lon="4.26515">
        <ele>629.1844746</ele>
        <time>2020-06-07T14:01:55Z</time>
      </trkpt>
      <trkpt lat="46.79619" lon="4.26517">
        <ele>630.184762</ele>
        <time>2020-06-07T14:02:46Z</time>
      </trkpt>
      <trkpt lat="46.79636" lon="4.26516">
        <ele>625.18545544</ele>
        <time>2020-06-07T14:02:56Z</time>
      </trkpt>
      <trkpt lat="46.79646" lon="4.26508">
        <ele>626.18583456</ele>
        <time>2020-06-07T14:03:05Z</time>
      </trkpt>
      <trkpt lat="46.79659" lon="4.26504">
        <ele>623.18636568</ele>
        <time>2020-06-07T14:03:15Z</time>
      </trkpt>
      <trkpt lat="46.79672" lon="4.26492">
        <ele>623.18687704</ele>
        <time>2020-06-07T14:03:24Z</time>
      </trkpt>
      <trkpt lat="46.79692" lon="4.26505">
        <ele>622.18766696</ele>
        <time>2020-06-07T14:03:34Z</time>
      </trkpt>
      <trkpt lat="46.797" lon="4.2651">
        <ele>622.18798852</ele>
        <time>2020-06-07T14:03:45Z</time>
      </trkpt>
      <trkpt lat="46.79708" lon="4.26514">
        <ele>621.18831264</ele>
        <time>2020-06-07T14:03:55Z</time>
      </trkpt>
      <trkpt lat="46.79717" lon="4.26515">
        <ele>620.18867068</ele>
        <time>2020-06-07T14:04:04Z</time>
      </trkpt>
      <trkpt lat="46.79726" lon="4.26502">
        <ele>618.18905796</ele>
        <time>2020-06-07T14:04:14Z</time>
      </trkpt>
      <trkpt lat="46.79727" lon="4.26485">
        <ele>617.18905996</ele>
        <time>2020-06-07T14:04:23Z</time>
      </trkpt>
      <trkpt lat="46.79726" lon="4.26469">
        <ele>620.18904648</ele>
        <time>2020-06-07T14:04:32Z</time>
      </trkpt>
      <trkpt lat="46.79729" lon="4.26456">
        <ele>620.18916076</ele>
        <time>2020-06-07T14:04:42Z</time>
      </trkpt>
      <trkpt lat="46.79729" lon="4.26438">
        <ele>618.18916712</ele>
        <time>2020-06-07T14:04:51Z</time>
      </trkpt>
      <trkpt lat="46.7973" lon="4.26418">
        <ele>621.189218</ele>
        <time>2020-06-07T14:05:01Z</time>
      </trkpt>
      <trkpt lat="46.79734" lon="4.26402">
        <ele>623.18936352</ele>
        <time>2020-06-07T14:05:10Z</time>
      </trkpt>
      <trkpt lat="46.79739" lon="4.26388">
        <ele>624.18956828</ele>
        <time>2020-06-07T14:05:20Z</time>
      </trkpt>
      <trkpt lat="46.79738" lon="4.26375">
        <ele>620.18952208</ele>
        <time>2020-06-07T14:05:29Z</time>
      </trkpt>
      <trkpt lat="46.79737" lon="4.2636">
        <ele>617.18946728</ele>
        <time>2020-06-07T14:05:38Z</time>
      </trkpt>
      <trkpt lat="46.79734" lon="4.26345">
        <ele>621.18937332</ele>
        <time>2020-06-07T14:05:48Z</time>
      </trkpt>
      <trkpt lat="46.79739" lon="4.2633">
        <ele>623.18954532</ele>
        <time>2020-06-07T14:05:57Z</time>
      </trkpt>
      <trkpt lat="46.79743" lon="4.26313">
        <ele>621.18970308</ele>
        <time>2020-06-07T14:06:07Z</time>
      </trkpt>
      <trkpt lat="46.79736" lon="4.26303">
        <ele>615.189426</ele>
        <time>2020-06-07T14:06:17Z</time>
      </trkpt>
      <trkpt lat="46.79728" lon="4.26288">
        <ele>617.18913376</ele>
        <time>2020-06-07T14:06:26Z</time>
      </trkpt>
      <trkpt lat="46.79722" lon="4.26282">
        <ele>616.18888912</ele>
        <time>2020-06-07T14:06:36Z</time>
      </trkpt>
      <trkpt lat="46.79711" lon="4.26272">
        <ele>616.18842476</ele>
        <time>2020-06-07T14:06:45Z</time>
      </trkpt>
      <trkpt lat="46.7971" lon="4.26257">
        <ele>618.1883828</ele>
        <time>2020-06-07T14:06:55Z</time>
      </trkpt>
      <trkpt lat="46.79702" lon="4.26241">
        <ele>616.18809492</ele>
        <time>2020-06-07T14:07:05Z</time>
      </trkpt>
      <trkpt lat="46.79698" lon="4.26226">
        <ele>619.18792264</ele>
        <time>2020-06-07T14:07:15Z</time>
      </trkpt>
      <trkpt lat="46.79693" lon="4.26215">
        <ele>615.18771716</ele>
        <time>2020-06-07T14:07:25Z</time>
      </trkpt>
      <trkpt lat="46.7969" lon="4.26202">
        <ele>613.18758292</ele>
        <time>2020-06-07T14:07:34Z</time>
      </trkpt>
      <trkpt lat="46.79678" lon="4.26196">
        <ele>614.18712844</ele>
        <time>2020-06-07T14:07:43Z</time>
      </trkpt>
      <trkpt lat="46.7967" lon="4.26193">
        <ele>618.18681768</ele>
        <time>2020-06-07T14:07:52Z</time>
      </trkpt>
      <trkpt lat="46.79664" lon="4.26179">
        <ele>623.18655844</ele>
        <time>2020-06-07T14:08:02Z</time>
      </trkpt>
      <trkpt lat="46.79656" lon="4.26169">
        <ele>622.1862564</ele>
        <time>2020-06-07T14:08:11Z</time>
      </trkpt>
      <trkpt lat="46.7965" lon="4.26154">
        <ele>622.18598072</ele>
        <time>2020-06-07T14:08:20Z</time>
      </trkpt>
      <trkpt lat="46.79647" lon="4.26135">
        <ele>626.18588348</ele>
        <time>2020-06-07T14:08:29Z</time>
      </trkpt>
      <trkpt lat="46.79651" lon="4.2612">
        <ele>625.18602492</ele>
        <time>2020-06-07T14:08:39Z</time>
      </trkpt>
      <trkpt lat="46.79661" lon="4.26111">
        <ele>630.18644048</ele>
        <time>2020-06-07T14:08:48Z</time>
      </trkpt>
      <trkpt lat="46.79663" lon="4.26099">
        <ele>627.18653076</ele>
        <time>2020-06-07T14:09:47Z</time>
      </trkpt>
      <trkpt lat="46.79674" lon="4.26092">
        <ele>628.18696552</ele>
        <time>2020-06-07T14:09:56Z</time>
      </trkpt>
      <trkpt lat="46.79685" lon="4.26092">
        <ele>629.18740252</ele>
        <time>2020-06-07T14:10:06Z</time>
      </trkpt>
      <trkpt lat="46.79695" lon="4.26089">
        <ele>625.18780844</ele>
        <time>2020-06-07T14:10:15Z</time>
      </trkpt>
      <trkpt lat="46.79706" lon="4.26082">
        <ele>628.188231</ele>
        <time>2020-06-07T14:10:25Z</time>
      </trkpt>
      <trkpt lat="46.79715" lon="4.26076">
        <ele>623.18860088</ele>
        <time>2020-06-07T14:10:34Z</time>
      </trkpt>
      <trkpt lat="46.79724" lon="4.2608">
        <ele>623.18893892</ele>
        <time>2020-06-07T14:10:44Z</time>
      </trkpt>
      <trkpt lat="46.79738" lon="4.26075">
        <ele>627.18949832</ele>
        <time>2020-06-07T14:10:53Z</time>
      </trkpt>
      <trkpt lat="46.79746" lon="4.26067">
        <ele>624.18984256</ele>
        <time>2020-06-07T14:11:02Z</time>
      </trkpt>
      <trkpt lat="46.79756" lon="4.2606">
        <ele>625.19023768</ele>
        <time>2020-06-07T14:11:11Z</time>
      </trkpt>
      <trkpt lat="46.7976" lon="4.26049">
        <ele>626.19040844</ele>
        <time>2020-06-07T14:11:20Z</time>
      </trkpt>
      <trkpt lat="46.79764" lon="4.26038">
        <ele>628.1905522</ele>
        <time>2020-06-07T14:11:29Z</time>
      </trkpt>
      <trkpt lat="46.79776" lon="4.26032">
        <ele>630.19103836</ele>
        <time>2020-06-07T14:11:38Z</time>
      </trkpt>
      <trkpt lat="46.79791" lon="4.26032">
        <ele>632.19161836</ele>
        <time>2020-06-07T14:11:48Z</time>
      </trkpt>
      <trkpt lat="46.79805" lon="4.26035">
        <ele>623.19218532</ele>
        <time>2020-06-07T14:11:58Z</time>
      </trkpt>
      <trkpt lat="46.79813" lon="4.26036">
        <ele>624.19249964</ele>
        <time>2020-06-07T14:12:08Z</time>
      </trkpt>
      <trkpt lat="46.79827" lon="4.26038">
        <ele>623.19307484</ele>
        <time>2020-06-07T14:12:18Z</time>
      </trkpt>
      <trkpt lat="46.79833" lon="4.26029">
        <ele>621.1933316</ele>
        <time>2020-06-07T14:12:28Z</time>
      </trkpt>
      <trkpt lat="46.79838" lon="4.26009">
        <ele>622.19352804</ele>
        <time>2020-06-07T14:12:38Z</time>
      </trkpt>
      <trkpt lat="46.79842" lon="4.25998">
        <ele>624.193693</ele>
        <time>2020-06-07T14:12:51Z</time>
      </trkpt>
      <trkpt lat="46.79847" lon="4.25981">
        <ele>626.19389408</ele>
        <time>2020-06-07T14:13:00Z</time>
      </trkpt>
      <trkpt lat="46.79856" lon="4.25973">
        <ele>629.19425156</ele>
        <time>2020-06-07T14:13:09Z</time>
      </trkpt>
      <trkpt lat="46.79865" lon="4.25961">
        <ele>632.19460248</ele>
        <time>2020-06-07T14:13:19Z</time>
      </trkpt>
      <trkpt lat="46.79868" lon="4.25943">
        <ele>631.1947148</ele>
        <time>2020-06-07T14:13:29Z</time>
      </trkpt>
      <trkpt lat="46.79876" lon="4.25933">
        <ele>630.19503972</ele>
        <time>2020-06-07T14:13:39Z</time>
      </trkpt>
      <trkpt lat="46.7988" lon="4.25922">
        <ele>631.19521116</ele>
        <time>2020-06-07T14:13:48Z</time>
      </trkpt>
      <trkpt lat="46.79883" lon="4.2591">
        <ele>634.19530388</ele>
        <time>2020-06-07T14:13:57Z</time>
      </trkpt>
      <trkpt lat="46.79888" lon="4.25897">
        <ele>633.19551536</ele>
        <time>2020-06-07T14:14:07Z</time>
      </trkpt>
      <trkpt lat="46.79891" lon="4.25879">
        <ele>631.19564004</ele>
        <time>2020-06-07T14:14:17Z</time>
      </trkpt>
      <trkpt lat="46.79903" lon="4.25869">
        <ele>632.1961332</ele>
        <time>2020-06-07T14:14:27Z</time>
      </trkpt>
      <trkpt lat="46.7991" lon="4.25857">
        <ele>633.1963828</ele>
        <time>2020-06-07T14:14:36Z</time>
      </trkpt>
      <trkpt lat="46.79918" lon="4.25842">
        <ele>639.19670496</ele>
        <time>2020-06-07T14:14:46Z</time>
      </trkpt>
      <trkpt lat="46.79924" lon="4.25834">
        <ele>631.1969532</ele>
        <time>2020-06-07T14:14:56Z</time>
      </trkpt>
      <trkpt lat="46.79935" lon="4.25831">
        <ele>631.19738416</ele>
        <time>2020-06-07T14:15:06Z</time>
      </trkpt>
      <trkpt lat="46.79949" lon="4.25825">
        <ele>632.19797696</ele>
        <time>2020-06-07T14:15:15Z</time>
      </trkpt>
      <trkpt lat="46.79957" lon="4.25812">
        <ele>637.19826984</ele>
        <time>2020-06-07T14:15:24Z</time>
      </trkpt>
      <trkpt lat="46.79961" lon="4.25796">
        <ele>635.1984346</ele>
        <time>2020-06-07T14:15:34Z</time>
      </trkpt>
      <trkpt lat="46.79974" lon="4.25789">
        <ele>635.19894136</ele>
        <time>2020-06-07T14:15:44Z</time>
      </trkpt>
      <trkpt lat="46.79983" lon="4.25786">
        <ele>630.19933128</ele>
        <time>2020-06-07T14:15:54Z</time>
      </trkpt>
      <trkpt lat="46.79994" lon="4.25789">
        <ele>631.19977268</ele>
        <time>2020-06-07T14:16:03Z</time>
      </trkpt>
      <trkpt lat="46.80008" lon="4.25785">
        <ele>631.20032544</ele>
        <time>2020-06-07T14:16:12Z</time>
      </trkpt>
      <trkpt lat="46.80022" lon="4.25786">
        <ele>629.20086796</ele>
        <time>2020-06-07T14:16:22Z</time>
      </trkpt>
      <trkpt lat="46.80032" lon="4.25782">
        <ele>634.20127824</ele>
        <time>2020-06-07T14:16:31Z</time>
      </trkpt>
      <trkpt lat="46.8004" lon="4.25791">
        <ele>632.20160364</ele>
        <time>2020-06-07T14:16:40Z</time>
      </trkpt>
      <trkpt lat="46.8005" lon="4.25792">
        <ele>637.20201096</ele>
        <time>2020-06-07T14:16:49Z</time>
      </trkpt>
      <trkpt lat="46.80062" lon="4.25795">
        <ele>640.20248456</ele>
        <time>2020-06-07T14:16:59Z</time>
      </trkpt>
      <trkpt lat="46.80069" lon="4.258">
        <ele>649.20277564</ele>
        <time>2020-06-07T14:17:09Z</time>
      </trkpt>
      <trkpt lat="46.80083" lon="4.25799">
        <ele>647.20331588</ele>
        <time>2020-06-07T14:17:19Z</time>
      </trkpt>
      <trkpt lat="46.80092" lon="4.25793">
        <ele>646.20368376</ele>
        <time>2020-06-07T14:17:28Z</time>
      </trkpt>
      <trkpt lat="46.80101" lon="4.25795">
        <ele>649.20402576</ele>
        <time>2020-06-07T14:18:22Z</time>
      </trkpt>
      <trkpt lat="46.80109" lon="4.25795">
        <ele>647.20437468</ele>
        <time>2020-06-07T14:18:31Z</time>
      </trkpt>
      <trkpt lat="46.80119" lon="4.25792">
        <ele>644.20474088</ele>
        <time>2020-06-07T14:18:41Z</time>
      </trkpt>
      <trkpt lat="46.80126" lon="4.25795">
        <ele>638.2050572</ele>
        <time>2020-06-07T14:18:52Z</time>
      </trkpt>
      <trkpt lat="46.80138" lon="4.25798">
        <ele>640.20551744</ele>
        <time>2020-06-07T14:19:01Z</time>
      </trkpt>
      <trkpt lat="46.80149" lon="4.25802">
        <ele>640.20596248</ele>
        <time>2020-06-07T14:19:11Z</time>
      </trkpt>
      <trkpt lat="46.80158" lon="4.25803">
        <ele>642.20632604</ele>
        <time>2020-06-07T14:19:21Z</time>
      </trkpt>
      <trkpt lat="46.80169" lon="4.25801">
        <ele>644.2067462</ele>
        <time>2020-06-07T14:19:30Z</time>
      </trkpt>
      <trkpt lat="46.80177" lon="4.25801">
        <ele>645.2070862</ele>
        <time>2020-06-07T14:19:40Z</time>
      </trkpt>
      <trkpt lat="46.80186" lon="4.25805">
        <ele>636.20744848</ele>
        <time>2020-06-07T14:19:49Z</time>
      </trkpt>
      <trkpt lat="46.80201" lon="4.25803">
        <ele>642.20804028</ele>
        <time>2020-06-07T14:19:58Z</time>
      </trkpt>
      <trkpt lat="46.80213" lon="4.25794">
        <ele>646.20851748</ele>
        <time>2020-06-07T14:20:08Z</time>
      </trkpt>
      <trkpt lat="46.80223" lon="4.25787">
        <ele>648.20890152</ele>
        <time>2020-06-07T14:20:17Z</time>
      </trkpt>
      <trkpt lat="46.80238" lon="4.25792">
        <ele>650.20951308</ele>
        <time>2020-06-07T14:20:27Z</time>
      </trkpt>
      <trkpt lat="46.80247" lon="4.25796">
        <ele>645.20988744</ele>
        <time>2020-06-07T14:20:36Z</time>
      </trkpt>
      <trkpt lat="46.80256" lon="4.25786">
        <ele>650.210231</ele>
        <time>2020-06-07T14:20:45Z</time>
      </trkpt>
      <trkpt lat="46.80268" lon="4.25776">
        <ele>649.21073644</ele>
        <time>2020-06-07T14:20:55Z</time>
      </trkpt>
      <trkpt lat="46.8028" lon="4.25775">
        <ele>651.2111992</ele>
        <time>2020-06-07T14:21:04Z</time>
      </trkpt>
      <trkpt lat="46.80288" lon="4.25762">
        <ele>648.2115066</ele>
        <time>2020-06-07T14:21:14Z</time>
      </trkpt>
      <trkpt lat="46.80297" lon="4.2576">
        <ele>649.21189784</ele>
        <time>2020-06-07T14:21:23Z</time>
      </trkpt>
      <trkpt lat="46.80312" lon="4.25754">
        <ele>647.21248484</ele>
        <time>2020-06-07T14:21:33Z</time>
      </trkpt>
      <trkpt lat="46.80325" lon="4.25757">
        <ele>649.21298128</ele>
        <time>2020-06-07T14:21:43Z</time>
      </trkpt>
      <trkpt lat="46.80336" lon="4.25761">
        <ele>646.21342112</ele>
        <time>2020-06-07T14:21:52Z</time>
      </trkpt>
      <trkpt lat="46.80346" lon="4.25757">
        <ele>646.21383184</ele>
        <time>2020-06-07T14:22:02Z</time>
      </trkpt>
      <trkpt lat="46.80366" lon="4.25761">
        <ele>647.2146436</ele>
        <time>2020-06-07T14:22:12Z</time>
      </trkpt>
      <trkpt lat="46.80375" lon="4.25763">
        <ele>650.21499048</ele>
        <time>2020-06-07T14:22:28Z</time>
      </trkpt>
      <trkpt lat="46.80384" lon="4.25761">
        <ele>649.21535176</ele>
        <time>2020-06-07T14:22:37Z</time>
      </trkpt>
      <trkpt lat="46.80396" lon="4.25758">
        <ele>645.21585424</ele>
        <time>2020-06-07T14:22:46Z</time>
      </trkpt>
      <trkpt lat="46.80409" lon="4.25764">
        <ele>652.21635464</ele>
        <time>2020-06-07T14:22:56Z</time>
      </trkpt>
      <trkpt lat="46.80423" lon="4.25765">
        <ele>655.2169004</ele>
        <time>2020-06-07T14:23:05Z</time>
      </trkpt>
      <trkpt lat="46.80433" lon="4.25767">
        <ele>652.21732776</ele>
        <time>2020-06-07T14:23:15Z</time>
      </trkpt>
      <trkpt lat="46.80446" lon="4.25777">
        <ele>647.2178292</ele>
        <time>2020-06-07T14:23:25Z</time>
      </trkpt>
      <trkpt lat="46.80456" lon="4.25782">
        <ele>651.21822876</ele>
        <time>2020-06-07T14:23:34Z</time>
      </trkpt>
      <trkpt lat="46.80469" lon="4.25781">
        <ele>648.2187636</ele>
        <time>2020-06-07T14:23:43Z</time>
      </trkpt>
      <trkpt lat="46.80479" lon="4.25767">
        <ele>652.21914016</ele>
        <time>2020-06-07T14:23:53Z</time>
      </trkpt>
      <trkpt lat="46.80488" lon="4.2576">
        <ele>649.21950396</ele>
        <time>2020-06-07T14:24:02Z</time>
      </trkpt>
      <trkpt lat="46.80498" lon="4.25753">
        <ele>649.21990616</ele>
        <time>2020-06-07T14:24:11Z</time>
      </trkpt>
      <trkpt lat="46.80508" lon="4.25737">
        <ele>654.2203226</ele>
        <time>2020-06-07T14:24:21Z</time>
      </trkpt>
      <trkpt lat="46.8052" lon="4.2573">
        <ele>650.22081784</ele>
        <time>2020-06-07T14:24:30Z</time>
      </trkpt>
      <trkpt lat="46.80528" lon="4.25714">
        <ele>650.22110184</ele>
        <time>2020-06-07T14:24:40Z</time>
      </trkpt>
      <trkpt lat="46.8054" lon="4.25702">
        <ele>648.2215874</ele>
        <time>2020-06-07T14:24:49Z</time>
      </trkpt>
      <trkpt lat="46.80545" lon="4.2569">
        <ele>650.22181336</ele>
        <time>2020-06-07T14:24:58Z</time>
      </trkpt>
      <trkpt lat="46.8056" lon="4.25682">
        <ele>646.22240356</ele>
        <time>2020-06-07T14:25:08Z</time>
      </trkpt>
      <trkpt lat="46.8057" lon="4.25675">
        <ele>649.22279204</ele>
        <time>2020-06-07T14:25:17Z</time>
      </trkpt>
      <trkpt lat="46.80583" lon="4.25664">
        <ele>653.22329944</ele>
        <time>2020-06-07T14:25:26Z</time>
      </trkpt>
      <trkpt lat="46.80594" lon="4.25658">
        <ele>653.2237572</ele>
        <time>2020-06-07T14:25:36Z</time>
      </trkpt>
      <trkpt lat="46.80604" lon="4.25646">
        <ele>654.22417228</ele>
        <time>2020-06-07T14:25:46Z</time>
      </trkpt>
      <trkpt lat="46.80615" lon="4.2564">
        <ele>651.2246142</ele>
        <time>2020-06-07T14:25:55Z</time>
      </trkpt>
      <trkpt lat="46.80623" lon="4.25626">
        <ele>655.22490128</ele>
        <time>2020-06-07T14:26:04Z</time>
      </trkpt>
      <trkpt lat="46.8063" lon="4.2562">
        <ele>652.22518644</ele>
        <time>2020-06-07T14:26:19Z</time>
      </trkpt>
      <trkpt lat="46.80635" lon="4.2562">
        <ele>655.22539928</ele>
        <time>2020-06-07T14:26:28Z</time>
      </trkpt>
      <trkpt lat="46.80635" lon="4.2562">
        <ele>655.22539928</ele>
        <time>2020-06-07T14:26:29Z</time>
      </trkpt>
      <trkpt lat="46.80636" lon="4.25617">
        <ele>642.22542232</ele>
        <time>2020-06-07T14:26:53Z</time>
      </trkpt>
      <trkpt lat="46.80637" lon="4.25605">
        <ele>653.22549424</ele>
        <time>2020-06-07T14:27:11Z</time>
      </trkpt>
      <trkpt lat="46.80645" lon="4.25586">
        <ele>654.22578076</ele>
        <time>2020-06-07T14:27:21Z</time>
      </trkpt>
      <trkpt lat="46.80643" lon="4.25573">
        <ele>653.22572228</ele>
        <time>2020-06-07T14:27:31Z</time>
      </trkpt>
      <trkpt lat="46.80649" lon="4.25559">
        <ele>650.22595836</ele>
        <time>2020-06-07T14:27:41Z</time>
      </trkpt>
      <trkpt lat="46.80647" lon="4.25548">
        <ele>646.22589088</ele>
        <time>2020-06-07T14:28:24Z</time>
      </trkpt>
      <trkpt lat="46.80639" lon="4.25531">
        <ele>651.22556572</ele>
        <time>2020-06-07T14:28:34Z</time>
      </trkpt>
      <trkpt lat="46.80637" lon="4.25519">
        <ele>651.22548104</ele>
        <time>2020-06-07T14:28:44Z</time>
      </trkpt>
      <trkpt lat="46.80637" lon="4.25496">
        <ele>652.2254694</ele>
        <time>2020-06-07T14:28:54Z</time>
      </trkpt>
      <trkpt lat="46.80641" lon="4.25483">
        <ele>650.2256528</ele>
        <time>2020-06-07T14:29:03Z</time>
      </trkpt>
      <trkpt lat="46.80645" lon="4.25468">
        <ele>650.22579324</ele>
        <time>2020-06-07T14:29:13Z</time>
      </trkpt>
      <trkpt lat="46.80645" lon="4.25453">
        <ele>647.22580576</ele>
        <time>2020-06-07T14:29:22Z</time>
      </trkpt>
      <trkpt lat="46.80646" lon="4.25439">
        <ele>650.22584004</ele>
        <time>2020-06-07T14:29:32Z</time>
      </trkpt>
      <trkpt lat="46.80641" lon="4.25422">
        <ele>648.22564836</ele>
        <time>2020-06-07T14:29:41Z</time>
      </trkpt>
      <trkpt lat="46.8064" lon="4.25403">
        <ele>648.22558596</ele>
        <time>2020-06-07T14:29:51Z</time>
      </trkpt>
      <trkpt lat="46.80642" lon="4.2539">
        <ele>651.22566144</ele>
        <time>2020-06-07T14:30:00Z</time>
      </trkpt>
      <trkpt lat="46.80642" lon="4.25373">
        <ele>653.225694</ele>
        <time>2020-06-07T14:30:10Z</time>
      </trkpt>
      <trkpt lat="46.80641" lon="4.25358">
        <ele>649.22561948</ele>
        <time>2020-06-07T14:30:20Z</time>
      </trkpt>
      <trkpt lat="46.80638" lon="4.25344">
        <ele>654.22551436</ele>
        <time>2020-06-07T14:30:29Z</time>
      </trkpt>
      <trkpt lat="46.8063" lon="4.25339">
        <ele>653.22519752</ele>
        <time>2020-06-07T14:30:45Z</time>
      </trkpt>
      <trkpt lat="46.80632" lon="4.25326">
        <ele>657.22528948</ele>
        <time>2020-06-07T14:31:08Z</time>
      </trkpt>
      <trkpt lat="46.8064" lon="4.25332">
        <ele>658.22559008</ele>
        <time>2020-06-07T14:32:03Z</time>
      </trkpt>
      <trkpt lat="46.80632" lon="4.25327">
        <ele>655.22527636</ele>
        <time>2020-06-07T14:34:52Z</time>
      </trkpt>
      <trkpt lat="46.80626" lon="4.25318">
        <ele>656.22505548</ele>
        <time>2020-06-07T14:35:53Z</time>
      </trkpt>
      <trkpt lat="46.80621" lon="4.25308">
        <ele>654.22485744</ele>
        <time>2020-06-07T14:36:03Z</time>
      </trkpt>
      <trkpt lat="46.80618" lon="4.25296">
        <ele>655.22473632</ele>
        <time>2020-06-07T14:36:12Z</time>
      </trkpt>
      <trkpt lat="46.80615" lon="4.25285">
        <ele>651.22458092</ele>
        <time>2020-06-07T14:40:19Z</time>
      </trkpt>
      <trkpt lat="46.80614" lon="4.25271">
        <ele>649.22456564</ele>
        <time>2020-06-07T14:40:28Z</time>
      </trkpt>
      <trkpt lat="46.80607" lon="4.25265">
        <ele>648.22426172</ele>
        <time>2020-06-07T14:40:39Z</time>
      </trkpt>
      <trkpt lat="46.80609" lon="4.25253">
        <ele>646.22437764</ele>
        <time>2020-06-07T14:40:54Z</time>
      </trkpt>
      <trkpt lat="46.80617" lon="4.25249">
        <ele>647.22469228</ele>
        <time>2020-06-07T14:41:04Z</time>
      </trkpt>
      <trkpt lat="46.80627" lon="4.25254">
        <ele>638.22507204</ele>
        <time>2020-06-07T14:41:14Z</time>
      </trkpt>
      <trkpt lat="46.80634" lon="4.25259">
        <ele>640.22534924</ele>
        <time>2020-06-07T14:41:28Z</time>
      </trkpt>
      <trkpt lat="46.80647" lon="4.25259">
        <ele>647.22586592</ele>
        <time>2020-06-07T14:41:38Z</time>
      </trkpt>
      <trkpt lat="46.80656" lon="4.2526">
        <ele>643.22622292</ele>
        <time>2020-06-07T14:41:50Z</time>
      </trkpt>
      <trkpt lat="46.80665" lon="4.25259">
        <ele>644.2265792</ele>
        <time>2020-06-07T14:42:05Z</time>
      </trkpt>
      <trkpt lat="46.80661" lon="4.25247">
        <ele>646.22643076</ele>
        <time>2020-06-07T14:42:54Z</time>
      </trkpt>
      <trkpt lat="46.80658" lon="4.25259">
        <ele>648.22632136</ele>
        <time>2020-06-07T14:43:59Z</time>
      </trkpt>
      <trkpt lat="46.80658" lon="4.25272">
        <ele>646.22632528</ele>
        <time>2020-06-07T14:44:09Z</time>
      </trkpt>
      <trkpt lat="46.80659" lon="4.25284">
        <ele>650.22637112</ele>
        <time>2020-06-07T14:44:20Z</time>
      </trkpt>
      <trkpt lat="46.80662" lon="4.25297">
        <ele>649.22646476</ele>
        <time>2020-06-07T14:44:33Z</time>
      </trkpt>
      <trkpt lat="46.80664" lon="4.25309">
        <ele>650.22654828</ele>
        <time>2020-06-07T14:44:44Z</time>
      </trkpt>
      <trkpt lat="46.80664" lon="4.25322">
        <ele>648.22654804</ele>
        <time>2020-06-07T14:46:12Z</time>
      </trkpt>
      <trkpt lat="46.8066" lon="4.25333">
        <ele>652.22639276</ele>
        <time>2020-06-07T14:46:24Z</time>
      </trkpt>
      <trkpt lat="46.80651" lon="4.25336">
        <ele>653.2260496</ele>
        <time>2020-06-07T14:47:03Z</time>
      </trkpt>
      <trkpt lat="46.80641" lon="4.25342">
        <ele>651.2256538</ele>
        <time>2020-06-07T14:47:12Z</time>
      </trkpt>
      <trkpt lat="46.80639" lon="4.25356">
        <ele>650.22557388</ele>
        <time>2020-06-07T14:47:22Z</time>
      </trkpt>
      <trkpt lat="46.80638" lon="4.25372">
        <ele>654.22550296</ele>
        <time>2020-06-07T14:47:32Z</time>
      </trkpt>
      <trkpt lat="46.8064" lon="4.25384">
        <ele>654.22559276</ele>
        <time>2020-06-07T14:47:41Z</time>
      </trkpt>
      <trkpt lat="46.80641" lon="4.25402">
        <ele>653.22562796</ele>
        <time>2020-06-07T14:47:51Z</time>
      </trkpt>
      <trkpt lat="46.80643" lon="4.25416">
        <ele>657.22570312</ele>
        <time>2020-06-07T14:48:01Z</time>
      </trkpt>
      <trkpt lat="46.80641" lon="4.25433">
        <ele>657.22562748</ele>
        <time>2020-06-07T14:48:10Z</time>
      </trkpt>
      <trkpt lat="46.80635" lon="4.25447">
        <ele>655.22541188</ele>
        <time>2020-06-07T14:48:20Z</time>
      </trkpt>
      <trkpt lat="46.8064" lon="4.25461">
        <ele>654.22560404</ele>
        <time>2020-06-07T14:48:29Z</time>
      </trkpt>
      <trkpt lat="46.80641" lon="4.25476">
        <ele>652.22565788</ele>
        <time>2020-06-07T14:48:38Z</time>
      </trkpt>
      <trkpt lat="46.80642" lon="4.2549">
        <ele>654.22568484</ele>
        <time>2020-06-07T14:48:47Z</time>
      </trkpt>
      <trkpt lat="46.80637" lon="4.25503">
        <ele>653.22545952</ele>
        <time>2020-06-07T14:48:56Z</time>
      </trkpt>
      <trkpt lat="46.80637" lon="4.25516">
        <ele>652.22545904</ele>
        <time>2020-06-07T14:49:05Z</time>
      </trkpt>
      <trkpt lat="46.80638" lon="4.25534">
        <ele>654.22552004</ele>
        <time>2020-06-07T14:49:14Z</time>
      </trkpt>
      <trkpt lat="46.80649" lon="4.2555">
        <ele>652.22595256</ele>
        <time>2020-06-07T14:49:24Z</time>
      </trkpt>
      <trkpt lat="46.80648" lon="4.25566">
        <ele>652.22589872</ele>
        <time>2020-06-07T14:49:33Z</time>
      </trkpt>
      <trkpt lat="46.80642" lon="4.25584">
        <ele>655.22566776</ele>
        <time>2020-06-07T14:49:43Z</time>
      </trkpt>
      <trkpt lat="46.80644" lon="4.256">
        <ele>660.22574336</ele>
        <time>2020-06-07T14:49:52Z</time>
      </trkpt>
      <trkpt lat="46.80642" lon="4.25614">
        <ele>659.22567832</ele>
        <time>2020-06-07T14:50:02Z</time>
      </trkpt>
      <trkpt lat="46.8064" lon="4.25616">
        <ele>655.2255922</ele>
        <time>2020-06-07T14:51:12Z</time>
      </trkpt>
      <trkpt lat="46.80653" lon="4.2569">
        <ele>652.22610716</ele>
        <time>2020-06-07T14:51:21Z</time>
      </trkpt>
      <trkpt lat="46.80653" lon="4.257">
        <ele>651.22610216</ele>
        <time>2020-06-07T14:51:23Z</time>
      </trkpt>
      <trkpt lat="46.80653" lon="4.257">
        <ele>651.22610216</ele>
        <time>2020-06-07T14:51:24Z</time>
      </trkpt>
    </trkseg>
  </trk>
</gpx>